<?xml version="1.0" encoding="UTF-8" standalone="no" ?>
<gpx xmlns="http://www.topografix.com/GPX/1/1" xmlns:xsi="http://www.w3.org/2001/XMLSchema-instance" xsi:schemaLocation="http://www.topografix.com/GPX/1/1 http://www.topografix.com/GPX/1/1/gpx.xsd" version="1.1" creator="VisuGPX - https://www.visugpx.com">
  <metadata>
    <name>x Issigeac et Zone humide</name>
    <desc><![CDATA[
]]></desc>
  </metadata>
  <trk>
    <name><![CDATA[x Issigeac et Zone humide]]></name>
    <trkseg>
      <trkpt lat="44.73109" lon="0.60809">
        <ele>105</ele>
        <time>2019-09-02T06:58:34Z</time>
      </trkpt>
      <trkpt lat="44.73109" lon="0.60809">
        <ele>105</ele>
        <time>2019-09-02T06:58:35Z</time>
      </trkpt>
      <trkpt lat="44.73104" lon="0.60812">
        <ele>105</ele>
        <time>2019-09-02T06:58:52Z</time>
      </trkpt>
      <trkpt lat="44.73099" lon="0.60811">
        <ele>105</ele>
        <time>2019-09-02T06:59:05Z</time>
      </trkpt>
      <trkpt lat="44.73098" lon="0.6081">
        <ele>105</ele>
        <time>2019-09-02T06:59:22Z</time>
      </trkpt>
      <trkpt lat="44.73097" lon="0.60808">
        <ele>106</ele>
        <time>2019-09-02T06:59:45Z</time>
      </trkpt>
      <trkpt lat="44.73096" lon="0.60808">
        <ele>106</ele>
        <time>2019-09-02T07:00:08Z</time>
      </trkpt>
      <trkpt lat="44.73096" lon="0.60808">
        <ele>106</ele>
        <time>2019-09-02T07:00:25Z</time>
      </trkpt>
      <trkpt lat="44.73097" lon="0.60809">
        <ele>106</ele>
        <time>2019-09-02T07:00:43Z</time>
      </trkpt>
      <trkpt lat="44.73099" lon="0.60811">
        <ele>105</ele>
        <time>2019-09-02T07:00:58Z</time>
      </trkpt>
      <trkpt lat="44.731" lon="0.60812">
        <ele>105</ele>
        <time>2019-09-02T07:01:12Z</time>
      </trkpt>
      <trkpt lat="44.73098" lon="0.60817">
        <ele>105</ele>
        <time>2019-09-02T07:01:25Z</time>
      </trkpt>
      <trkpt lat="44.73094" lon="0.60815">
        <ele>106</ele>
        <time>2019-09-02T07:01:38Z</time>
      </trkpt>
      <trkpt lat="44.73096" lon="0.60812">
        <ele>106</ele>
        <time>2019-09-02T07:01:54Z</time>
      </trkpt>
      <trkpt lat="44.73096" lon="0.60812">
        <ele>106</ele>
        <time>2019-09-02T07:02:12Z</time>
      </trkpt>
      <trkpt lat="44.73097" lon="0.6081">
        <ele>106</ele>
        <time>2019-09-02T07:02:24Z</time>
      </trkpt>
      <trkpt lat="44.73097" lon="0.6081">
        <ele>106</ele>
        <time>2019-09-02T07:02:42Z</time>
      </trkpt>
      <trkpt lat="44.73096" lon="0.60813">
        <ele>106</ele>
        <time>2019-09-02T07:03:08Z</time>
      </trkpt>
      <trkpt lat="44.73094" lon="0.60808">
        <ele>106</ele>
        <time>2019-09-02T07:03:27Z</time>
      </trkpt>
      <trkpt lat="44.73096" lon="0.60809">
        <ele>106</ele>
        <time>2019-09-02T07:03:51Z</time>
      </trkpt>
      <trkpt lat="44.73098" lon="0.60811">
        <ele>106</ele>
        <time>2019-09-02T07:04:13Z</time>
      </trkpt>
      <trkpt lat="44.73097" lon="0.6081">
        <ele>106</ele>
        <time>2019-09-02T07:04:40Z</time>
      </trkpt>
      <trkpt lat="44.73096" lon="0.60808">
        <ele>106</ele>
        <time>2019-09-02T07:05:03Z</time>
      </trkpt>
      <trkpt lat="44.73095" lon="0.60799">
        <ele>106</ele>
        <time>2019-09-02T07:05:17Z</time>
      </trkpt>
      <trkpt lat="44.73093" lon="0.60792">
        <ele>106</ele>
        <time>2019-09-02T07:05:28Z</time>
      </trkpt>
      <trkpt lat="44.73094" lon="0.60794">
        <ele>106</ele>
        <time>2019-09-02T07:05:42Z</time>
      </trkpt>
      <trkpt lat="44.73094" lon="0.60792">
        <ele>106</ele>
        <time>2019-09-02T07:05:51Z</time>
      </trkpt>
      <trkpt lat="44.7308" lon="0.60789">
        <ele>106</ele>
        <time>2019-09-02T07:06:06Z</time>
      </trkpt>
      <trkpt lat="44.73077" lon="0.60788">
        <ele>106</ele>
        <time>2019-09-02T07:06:09Z</time>
      </trkpt>
      <trkpt lat="44.73062" lon="0.60782">
        <ele>107</ele>
        <time>2019-09-02T07:06:25Z</time>
      </trkpt>
      <trkpt lat="44.73059" lon="0.60782">
        <ele>107</ele>
        <time>2019-09-02T07:06:29Z</time>
      </trkpt>
      <trkpt lat="44.73054" lon="0.6079">
        <ele>107</ele>
        <time>2019-09-02T07:06:36Z</time>
      </trkpt>
      <trkpt lat="44.73039" lon="0.60797">
        <ele>107</ele>
        <time>2019-09-02T07:06:52Z</time>
      </trkpt>
      <trkpt lat="44.7303" lon="0.60806">
        <ele>108</ele>
        <time>2019-09-02T07:07:05Z</time>
      </trkpt>
      <trkpt lat="44.73027" lon="0.60818">
        <ele>108</ele>
        <time>2019-09-02T07:07:15Z</time>
      </trkpt>
      <trkpt lat="44.73021" lon="0.60827">
        <ele>108</ele>
        <time>2019-09-02T07:07:24Z</time>
      </trkpt>
      <trkpt lat="44.73014" lon="0.60836">
        <ele>108</ele>
        <time>2019-09-02T07:07:35Z</time>
      </trkpt>
      <trkpt lat="44.73" lon="0.60837">
        <ele>108</ele>
        <time>2019-09-02T07:07:50Z</time>
      </trkpt>
      <trkpt lat="44.7298" lon="0.60833">
        <ele>108</ele>
        <time>2019-09-02T07:08:04Z</time>
      </trkpt>
      <trkpt lat="44.72963" lon="0.60829">
        <ele>108</ele>
        <time>2019-09-02T07:08:20Z</time>
      </trkpt>
      <trkpt lat="44.72952" lon="0.60813">
        <ele>109</ele>
        <time>2019-09-02T07:08:34Z</time>
      </trkpt>
      <trkpt lat="44.72938" lon="0.60793">
        <ele>109</ele>
        <time>2019-09-02T07:08:49Z</time>
      </trkpt>
      <trkpt lat="44.72928" lon="0.60755">
        <ele>109</ele>
        <time>2019-09-02T07:09:10Z</time>
      </trkpt>
      <trkpt lat="44.72925" lon="0.60736">
        <ele>110</ele>
        <time>2019-09-02T07:09:24Z</time>
      </trkpt>
      <trkpt lat="44.72925" lon="0.60714">
        <ele>110</ele>
        <time>2019-09-02T07:09:39Z</time>
      </trkpt>
      <trkpt lat="44.72925" lon="0.60711">
        <ele>110</ele>
        <time>2019-09-02T07:09:41Z</time>
      </trkpt>
      <trkpt lat="44.72926" lon="0.60704">
        <ele>110</ele>
        <time>2019-09-02T07:09:45Z</time>
      </trkpt>
      <trkpt lat="44.72924" lon="0.60686">
        <ele>110</ele>
        <time>2019-09-02T07:09:56Z</time>
      </trkpt>
      <trkpt lat="44.72915" lon="0.60665">
        <ele>109</ele>
        <time>2019-09-02T07:10:07Z</time>
      </trkpt>
      <trkpt lat="44.72906" lon="0.60659">
        <ele>109</ele>
        <time>2019-09-02T07:10:21Z</time>
      </trkpt>
      <trkpt lat="44.72903" lon="0.60648">
        <ele>109</ele>
        <time>2019-09-02T07:10:30Z</time>
      </trkpt>
      <trkpt lat="44.72919" lon="0.60626">
        <ele>110</ele>
        <time>2019-09-02T07:10:48Z</time>
      </trkpt>
      <trkpt lat="44.72921" lon="0.60623">
        <ele>110</ele>
        <time>2019-09-02T07:10:51Z</time>
      </trkpt>
      <trkpt lat="44.7292" lon="0.60607">
        <ele>110</ele>
        <time>2019-09-02T07:11:05Z</time>
      </trkpt>
      <trkpt lat="44.72908" lon="0.60589">
        <ele>109</ele>
        <time>2019-09-02T07:11:19Z</time>
      </trkpt>
      <trkpt lat="44.72907" lon="0.60588">
        <ele>109</ele>
        <time>2019-09-02T07:11:20Z</time>
      </trkpt>
      <trkpt lat="44.72898" lon="0.60573">
        <ele>109</ele>
        <time>2019-09-02T07:11:33Z</time>
      </trkpt>
      <trkpt lat="44.72904" lon="0.60556">
        <ele>109</ele>
        <time>2019-09-02T07:11:45Z</time>
      </trkpt>
      <trkpt lat="44.72905" lon="0.60539">
        <ele>109</ele>
        <time>2019-09-02T07:11:55Z</time>
      </trkpt>
      <trkpt lat="44.729" lon="0.60518">
        <ele>109</ele>
        <time>2019-09-02T07:12:12Z</time>
      </trkpt>
      <trkpt lat="44.72898" lon="0.605">
        <ele>109</ele>
        <time>2019-09-02T07:12:26Z</time>
      </trkpt>
      <trkpt lat="44.72898" lon="0.60497">
        <ele>109</ele>
        <time>2019-09-02T07:12:29Z</time>
      </trkpt>
      <trkpt lat="44.72896" lon="0.6047">
        <ele>110</ele>
        <time>2019-09-02T07:12:44Z</time>
      </trkpt>
      <trkpt lat="44.72886" lon="0.60445">
        <ele>110</ele>
        <time>2019-09-02T07:13:01Z</time>
      </trkpt>
      <trkpt lat="44.72875" lon="0.60422">
        <ele>110</ele>
        <time>2019-09-02T07:13:17Z</time>
      </trkpt>
      <trkpt lat="44.72863" lon="0.60392">
        <ele>110</ele>
        <time>2019-09-02T07:13:37Z</time>
      </trkpt>
      <trkpt lat="44.72856" lon="0.60366">
        <ele>110</ele>
        <time>2019-09-02T07:13:54Z</time>
      </trkpt>
      <trkpt lat="44.72858" lon="0.60333">
        <ele>110</ele>
        <time>2019-09-02T07:14:15Z</time>
      </trkpt>
      <trkpt lat="44.72864" lon="0.60317">
        <ele>110</ele>
        <time>2019-09-02T07:14:28Z</time>
      </trkpt>
      <trkpt lat="44.7287" lon="0.60293">
        <ele>110</ele>
        <time>2019-09-02T07:14:44Z</time>
      </trkpt>
      <trkpt lat="44.72874" lon="0.60267">
        <ele>110</ele>
        <time>2019-09-02T07:15:00Z</time>
      </trkpt>
      <trkpt lat="44.72877" lon="0.60254">
        <ele>110</ele>
        <time>2019-09-02T07:15:09Z</time>
      </trkpt>
      <trkpt lat="44.72879" lon="0.60242">
        <ele>110</ele>
        <time>2019-09-02T07:15:24Z</time>
      </trkpt>
      <trkpt lat="44.72882" lon="0.60227">
        <ele>110</ele>
        <time>2019-09-02T07:15:38Z</time>
      </trkpt>
      <trkpt lat="44.72886" lon="0.60212">
        <ele>110</ele>
        <time>2019-09-02T07:15:49Z</time>
      </trkpt>
      <trkpt lat="44.7288" lon="0.60187">
        <ele>109</ele>
        <time>2019-09-02T07:16:06Z</time>
      </trkpt>
      <trkpt lat="44.72882" lon="0.6016">
        <ele>108</ele>
        <time>2019-09-02T07:16:23Z</time>
      </trkpt>
      <trkpt lat="44.7289" lon="0.60137">
        <ele>107</ele>
        <time>2019-09-02T07:16:40Z</time>
      </trkpt>
      <trkpt lat="44.72898" lon="0.60112">
        <ele>105</ele>
        <time>2019-09-02T07:16:58Z</time>
      </trkpt>
      <trkpt lat="44.72907" lon="0.60082">
        <ele>104</ele>
        <time>2019-09-02T07:17:18Z</time>
      </trkpt>
      <trkpt lat="44.72916" lon="0.60055">
        <ele>103</ele>
        <time>2019-09-02T07:17:37Z</time>
      </trkpt>
      <trkpt lat="44.72923" lon="0.6003">
        <ele>103</ele>
        <time>2019-09-02T07:17:53Z</time>
      </trkpt>
      <trkpt lat="44.72929" lon="0.60008">
        <ele>103</ele>
        <time>2019-09-02T07:18:08Z</time>
      </trkpt>
      <trkpt lat="44.72938" lon="0.5998">
        <ele>103</ele>
        <time>2019-09-02T07:18:26Z</time>
      </trkpt>
      <trkpt lat="44.72947" lon="0.59949">
        <ele>103</ele>
        <time>2019-09-02T07:18:47Z</time>
      </trkpt>
      <trkpt lat="44.72956" lon="0.5992">
        <ele>103</ele>
        <time>2019-09-02T07:19:07Z</time>
      </trkpt>
      <trkpt lat="44.72965" lon="0.59892">
        <ele>103</ele>
        <time>2019-09-02T07:19:26Z</time>
      </trkpt>
      <trkpt lat="44.72971" lon="0.59872">
        <ele>102</ele>
        <time>2019-09-02T07:19:39Z</time>
      </trkpt>
      <trkpt lat="44.7297" lon="0.5987">
        <ele>102</ele>
        <time>2019-09-02T07:19:40Z</time>
      </trkpt>
      <trkpt lat="44.72975" lon="0.59854">
        <ele>102</ele>
        <time>2019-09-02T07:19:50Z</time>
      </trkpt>
      <trkpt lat="44.7298" lon="0.59842">
        <ele>102</ele>
        <time>2019-09-02T07:19:58Z</time>
      </trkpt>
      <trkpt lat="44.72983" lon="0.59828">
        <ele>102</ele>
        <time>2019-09-02T07:20:06Z</time>
      </trkpt>
      <trkpt lat="44.72991" lon="0.59803">
        <ele>102</ele>
        <time>2019-09-02T07:20:24Z</time>
      </trkpt>
      <trkpt lat="44.72992" lon="0.59802">
        <ele>102</ele>
        <time>2019-09-02T07:20:25Z</time>
      </trkpt>
      <trkpt lat="44.72994" lon="0.598">
        <ele>102</ele>
        <time>2019-09-02T07:20:27Z</time>
      </trkpt>
      <trkpt lat="44.73" lon="0.59775">
        <ele>103</ele>
        <time>2019-09-02T07:20:42Z</time>
      </trkpt>
      <trkpt lat="44.73001" lon="0.59773">
        <ele>103</ele>
        <time>2019-09-02T07:20:44Z</time>
      </trkpt>
      <trkpt lat="44.73" lon="0.59764">
        <ele>103</ele>
        <time>2019-09-02T07:20:45Z</time>
      </trkpt>
      <trkpt lat="44.73008" lon="0.59733">
        <ele>104</ele>
        <time>2019-09-02T07:21:06Z</time>
      </trkpt>
      <trkpt lat="44.73016" lon="0.59707">
        <ele>105</ele>
        <time>2019-09-02T07:21:24Z</time>
      </trkpt>
      <trkpt lat="44.73017" lon="0.59703">
        <ele>105</ele>
        <time>2019-09-02T07:21:27Z</time>
      </trkpt>
      <trkpt lat="44.73022" lon="0.59681">
        <ele>106</ele>
        <time>2019-09-02T07:21:42Z</time>
      </trkpt>
      <trkpt lat="44.73025" lon="0.59658">
        <ele>107</ele>
        <time>2019-09-02T07:21:57Z</time>
      </trkpt>
      <trkpt lat="44.73025" lon="0.59633">
        <ele>108</ele>
        <time>2019-09-02T07:22:14Z</time>
      </trkpt>
      <trkpt lat="44.73025" lon="0.59606">
        <ele>109</ele>
        <time>2019-09-02T07:22:30Z</time>
      </trkpt>
      <trkpt lat="44.73023" lon="0.59575">
        <ele>110</ele>
        <time>2019-09-02T07:22:48Z</time>
      </trkpt>
      <trkpt lat="44.73013" lon="0.59552">
        <ele>110</ele>
        <time>2019-09-02T07:23:03Z</time>
      </trkpt>
      <trkpt lat="44.72999" lon="0.59531">
        <ele>110</ele>
        <time>2019-09-02T07:23:22Z</time>
      </trkpt>
      <trkpt lat="44.72985" lon="0.59516">
        <ele>109</ele>
        <time>2019-09-02T07:23:39Z</time>
      </trkpt>
      <trkpt lat="44.72971" lon="0.59489">
        <ele>107</ele>
        <time>2019-09-02T07:23:58Z</time>
      </trkpt>
      <trkpt lat="44.72969" lon="0.59466">
        <ele>106</ele>
        <time>2019-09-02T07:24:12Z</time>
      </trkpt>
      <trkpt lat="44.72968" lon="0.59452">
        <ele>106</ele>
        <time>2019-09-02T07:24:22Z</time>
      </trkpt>
      <trkpt lat="44.72968" lon="0.59446">
        <ele>106</ele>
        <time>2019-09-02T07:24:26Z</time>
      </trkpt>
      <trkpt lat="44.72962" lon="0.59414">
        <ele>106</ele>
        <time>2019-09-02T07:24:45Z</time>
      </trkpt>
      <trkpt lat="44.7295" lon="0.59386">
        <ele>107</ele>
        <time>2019-09-02T07:25:04Z</time>
      </trkpt>
      <trkpt lat="44.72936" lon="0.59361">
        <ele>107</ele>
        <time>2019-09-02T07:25:22Z</time>
      </trkpt>
      <trkpt lat="44.72923" lon="0.59331">
        <ele>108</ele>
        <time>2019-09-02T07:25:43Z</time>
      </trkpt>
      <trkpt lat="44.7291" lon="0.59296">
        <ele>107</ele>
        <time>2019-09-02T07:26:06Z</time>
      </trkpt>
      <trkpt lat="44.72894" lon="0.59266">
        <ele>108</ele>
        <time>2019-09-02T07:26:28Z</time>
      </trkpt>
      <trkpt lat="44.72881" lon="0.59234">
        <ele>109</ele>
        <time>2019-09-02T07:26:48Z</time>
      </trkpt>
      <trkpt lat="44.72877" lon="0.59207">
        <ele>110</ele>
        <time>2019-09-02T07:27:05Z</time>
      </trkpt>
      <trkpt lat="44.72874" lon="0.59179">
        <ele>112</ele>
        <time>2019-09-02T07:27:23Z</time>
      </trkpt>
      <trkpt lat="44.72867" lon="0.59156">
        <ele>113</ele>
        <time>2019-09-02T07:27:39Z</time>
      </trkpt>
      <trkpt lat="44.7286" lon="0.59139">
        <ele>114</ele>
        <time>2019-09-02T07:27:54Z</time>
      </trkpt>
      <trkpt lat="44.72848" lon="0.59124">
        <ele>116</ele>
        <time>2019-09-02T07:28:10Z</time>
      </trkpt>
      <trkpt lat="44.72846" lon="0.59122">
        <ele>116</ele>
        <time>2019-09-02T07:28:12Z</time>
      </trkpt>
      <trkpt lat="44.72831" lon="0.59098">
        <ele>117</ele>
        <time>2019-09-02T07:28:29Z</time>
      </trkpt>
      <trkpt lat="44.72823" lon="0.59075">
        <ele>117</ele>
        <time>2019-09-02T07:28:44Z</time>
      </trkpt>
      <trkpt lat="44.72818" lon="0.59042">
        <ele>116</ele>
        <time>2019-09-02T07:29:04Z</time>
      </trkpt>
      <trkpt lat="44.72816" lon="0.59023">
        <ele>116</ele>
        <time>2019-09-02T07:29:16Z</time>
      </trkpt>
      <trkpt lat="44.72809" lon="0.58993">
        <ele>117</ele>
        <time>2019-09-02T07:29:35Z</time>
      </trkpt>
      <trkpt lat="44.72806" lon="0.58963">
        <ele>118</ele>
        <time>2019-09-02T07:29:54Z</time>
      </trkpt>
      <trkpt lat="44.72807" lon="0.58934">
        <ele>118</ele>
        <time>2019-09-02T07:30:11Z</time>
      </trkpt>
      <trkpt lat="44.7281" lon="0.58904">
        <ele>119</ele>
        <time>2019-09-02T07:30:29Z</time>
      </trkpt>
      <trkpt lat="44.72813" lon="0.58882">
        <ele>118</ele>
        <time>2019-09-02T07:30:47Z</time>
      </trkpt>
      <trkpt lat="44.72815" lon="0.58857">
        <ele>117</ele>
        <time>2019-09-02T07:31:03Z</time>
      </trkpt>
      <trkpt lat="44.72817" lon="0.58827">
        <ele>115</ele>
        <time>2019-09-02T07:31:22Z</time>
      </trkpt>
      <trkpt lat="44.72819" lon="0.58802">
        <ele>114</ele>
        <time>2019-09-02T07:31:38Z</time>
      </trkpt>
      <trkpt lat="44.7282" lon="0.58773">
        <ele>113</ele>
        <time>2019-09-02T07:31:56Z</time>
      </trkpt>
      <trkpt lat="44.72818" lon="0.58745">
        <ele>113</ele>
        <time>2019-09-02T07:32:10Z</time>
      </trkpt>
      <trkpt lat="44.72813" lon="0.58722">
        <ele>114</ele>
        <time>2019-09-02T07:32:21Z</time>
      </trkpt>
      <trkpt lat="44.72811" lon="0.58707">
        <ele>114</ele>
        <time>2019-09-02T07:32:29Z</time>
      </trkpt>
      <trkpt lat="44.72812" lon="0.58705">
        <ele>114</ele>
        <time>2019-09-02T07:32:30Z</time>
      </trkpt>
      <trkpt lat="44.72812" lon="0.58703">
        <ele>114</ele>
        <time>2019-09-02T07:32:31Z</time>
      </trkpt>
      <trkpt lat="44.72812" lon="0.58701">
        <ele>114</ele>
        <time>2019-09-02T07:32:32Z</time>
      </trkpt>
      <trkpt lat="44.72811" lon="0.587">
        <ele>114</ele>
        <time>2019-09-02T07:32:33Z</time>
      </trkpt>
      <trkpt lat="44.72809" lon="0.58675">
        <ele>115</ele>
        <time>2019-09-02T07:32:47Z</time>
      </trkpt>
      <trkpt lat="44.72805" lon="0.58647">
        <ele>115</ele>
        <time>2019-09-02T07:33:04Z</time>
      </trkpt>
      <trkpt lat="44.72801" lon="0.58621">
        <ele>116</ele>
        <time>2019-09-02T07:33:20Z</time>
      </trkpt>
      <trkpt lat="44.72797" lon="0.58591">
        <ele>117</ele>
        <time>2019-09-02T07:33:38Z</time>
      </trkpt>
      <trkpt lat="44.72792" lon="0.58562">
        <ele>117</ele>
        <time>2019-09-02T07:33:55Z</time>
      </trkpt>
      <trkpt lat="44.72788" lon="0.58537">
        <ele>118</ele>
        <time>2019-09-02T07:34:12Z</time>
      </trkpt>
      <trkpt lat="44.72787" lon="0.5853">
        <ele>119</ele>
        <time>2019-09-02T07:34:16Z</time>
      </trkpt>
      <trkpt lat="44.72788" lon="0.58511">
        <ele>119</ele>
        <time>2019-09-02T07:34:29Z</time>
      </trkpt>
      <trkpt lat="44.72789" lon="0.5851">
        <ele>119</ele>
        <time>2019-09-02T07:34:30Z</time>
      </trkpt>
      <trkpt lat="44.72798" lon="0.585">
        <ele>120</ele>
        <time>2019-09-02T07:34:44Z</time>
      </trkpt>
      <trkpt lat="44.72811" lon="0.58492">
        <ele>121</ele>
        <time>2019-09-02T07:34:58Z</time>
      </trkpt>
      <trkpt lat="44.72824" lon="0.58488">
        <ele>121</ele>
        <time>2019-09-02T07:35:14Z</time>
      </trkpt>
      <trkpt lat="44.72834" lon="0.58484">
        <ele>122</ele>
        <time>2019-09-02T07:35:36Z</time>
      </trkpt>
      <trkpt lat="44.72853" lon="0.58477">
        <ele>122</ele>
        <time>2019-09-02T07:35:54Z</time>
      </trkpt>
      <trkpt lat="44.72871" lon="0.5847">
        <ele>123</ele>
        <time>2019-09-02T07:36:10Z</time>
      </trkpt>
      <trkpt lat="44.72891" lon="0.5846">
        <ele>124</ele>
        <time>2019-09-02T07:36:29Z</time>
      </trkpt>
      <trkpt lat="44.72907" lon="0.58453">
        <ele>125</ele>
        <time>2019-09-02T07:36:45Z</time>
      </trkpt>
      <trkpt lat="44.72925" lon="0.58445">
        <ele>126</ele>
        <time>2019-09-02T07:37:02Z</time>
      </trkpt>
      <trkpt lat="44.72948" lon="0.58436">
        <ele>127</ele>
        <time>2019-09-02T07:37:22Z</time>
      </trkpt>
      <trkpt lat="44.72965" lon="0.58429">
        <ele>128</ele>
        <time>2019-09-02T07:37:38Z</time>
      </trkpt>
      <trkpt lat="44.72979" lon="0.58422">
        <ele>128</ele>
        <time>2019-09-02T07:37:52Z</time>
      </trkpt>
      <trkpt lat="44.7298" lon="0.5842">
        <ele>128</ele>
        <time>2019-09-02T07:37:53Z</time>
      </trkpt>
      <trkpt lat="44.72981" lon="0.58412">
        <ele>128</ele>
        <time>2019-09-02T07:38:00Z</time>
      </trkpt>
      <trkpt lat="44.72981" lon="0.5841">
        <ele>128</ele>
        <time>2019-09-02T07:38:01Z</time>
      </trkpt>
      <trkpt lat="44.72981" lon="0.58409">
        <ele>128</ele>
        <time>2019-09-02T07:38:02Z</time>
      </trkpt>
      <trkpt lat="44.72976" lon="0.58381">
        <ele>128</ele>
        <time>2019-09-02T07:38:21Z</time>
      </trkpt>
      <trkpt lat="44.72976" lon="0.5838">
        <ele>128</ele>
        <time>2019-09-02T07:38:22Z</time>
      </trkpt>
      <trkpt lat="44.72977" lon="0.58378">
        <ele>128</ele>
        <time>2019-09-02T07:38:23Z</time>
      </trkpt>
      <trkpt lat="44.7298" lon="0.58376">
        <ele>128</ele>
        <time>2019-09-02T07:38:27Z</time>
      </trkpt>
      <trkpt lat="44.72982" lon="0.58375">
        <ele>128</ele>
        <time>2019-09-02T07:38:28Z</time>
      </trkpt>
      <trkpt lat="44.72982" lon="0.58374">
        <ele>128</ele>
        <time>2019-09-02T07:38:29Z</time>
      </trkpt>
      <trkpt lat="44.72989" lon="0.58371">
        <ele>128</ele>
        <time>2019-09-02T07:38:35Z</time>
      </trkpt>
      <trkpt lat="44.73006" lon="0.58363">
        <ele>130</ele>
        <time>2019-09-02T07:38:53Z</time>
      </trkpt>
      <trkpt lat="44.73024" lon="0.58354">
        <ele>132</ele>
        <time>2019-09-02T07:39:11Z</time>
      </trkpt>
      <trkpt lat="44.73035" lon="0.5835">
        <ele>133</ele>
        <time>2019-09-02T07:39:20Z</time>
      </trkpt>
      <trkpt lat="44.73053" lon="0.58339">
        <ele>136</ele>
        <time>2019-09-02T07:39:39Z</time>
      </trkpt>
      <trkpt lat="44.73067" lon="0.58335">
        <ele>139</ele>
        <time>2019-09-02T07:39:55Z</time>
      </trkpt>
      <trkpt lat="44.73071" lon="0.5834">
        <ele>139</ele>
        <time>2019-09-02T07:40:01Z</time>
      </trkpt>
      <trkpt lat="44.73074" lon="0.58352">
        <ele>138</ele>
        <time>2019-09-02T07:40:12Z</time>
      </trkpt>
      <trkpt lat="44.73077" lon="0.58361">
        <ele>138</ele>
        <time>2019-09-02T07:40:19Z</time>
      </trkpt>
      <trkpt lat="44.73081" lon="0.58368">
        <ele>138</ele>
        <time>2019-09-02T07:40:25Z</time>
      </trkpt>
      <trkpt lat="44.73091" lon="0.5837">
        <ele>137</ele>
        <time>2019-09-02T07:40:35Z</time>
      </trkpt>
      <trkpt lat="44.73112" lon="0.58363">
        <ele>136</ele>
        <time>2019-09-02T07:40:52Z</time>
      </trkpt>
      <trkpt lat="44.73132" lon="0.58358">
        <ele>135</ele>
        <time>2019-09-02T07:41:09Z</time>
      </trkpt>
      <trkpt lat="44.73145" lon="0.58354">
        <ele>133</ele>
        <time>2019-09-02T07:41:21Z</time>
      </trkpt>
      <trkpt lat="44.73161" lon="0.58349">
        <ele>132</ele>
        <time>2019-09-02T07:41:36Z</time>
      </trkpt>
      <trkpt lat="44.73182" lon="0.58342">
        <ele>130</ele>
        <time>2019-09-02T07:41:52Z</time>
      </trkpt>
      <trkpt lat="44.732" lon="0.58335">
        <ele>130</ele>
        <time>2019-09-02T07:42:09Z</time>
      </trkpt>
      <trkpt lat="44.73225" lon="0.58327">
        <ele>129</ele>
        <time>2019-09-02T07:42:30Z</time>
      </trkpt>
      <trkpt lat="44.73253" lon="0.58318">
        <ele>127</ele>
        <time>2019-09-02T07:42:54Z</time>
      </trkpt>
      <trkpt lat="44.73279" lon="0.58312">
        <ele>126</ele>
        <time>2019-09-02T07:43:14Z</time>
      </trkpt>
      <trkpt lat="44.73299" lon="0.58307">
        <ele>126</ele>
        <time>2019-09-02T07:43:31Z</time>
      </trkpt>
      <trkpt lat="44.73317" lon="0.58303">
        <ele>126</ele>
        <time>2019-09-02T07:43:47Z</time>
      </trkpt>
      <trkpt lat="44.73338" lon="0.58297">
        <ele>126</ele>
        <time>2019-09-02T07:44:06Z</time>
      </trkpt>
      <trkpt lat="44.73346" lon="0.58292">
        <ele>126</ele>
        <time>2019-09-02T07:44:12Z</time>
      </trkpt>
      <trkpt lat="44.73362" lon="0.58276">
        <ele>125</ele>
        <time>2019-09-02T07:44:28Z</time>
      </trkpt>
      <trkpt lat="44.73364" lon="0.58274">
        <ele>125</ele>
        <time>2019-09-02T07:44:30Z</time>
      </trkpt>
      <trkpt lat="44.73379" lon="0.58262">
        <ele>125</ele>
        <time>2019-09-02T07:44:44Z</time>
      </trkpt>
      <trkpt lat="44.73389" lon="0.58247">
        <ele>125</ele>
        <time>2019-09-02T07:44:56Z</time>
      </trkpt>
      <trkpt lat="44.73401" lon="0.58236">
        <ele>125</ele>
        <time>2019-09-02T07:45:07Z</time>
      </trkpt>
      <trkpt lat="44.73416" lon="0.58217">
        <ele>124</ele>
        <time>2019-09-02T07:45:24Z</time>
      </trkpt>
      <trkpt lat="44.73437" lon="0.58197">
        <ele>124</ele>
        <time>2019-09-02T07:45:44Z</time>
      </trkpt>
      <trkpt lat="44.73458" lon="0.58185">
        <ele>124</ele>
        <time>2019-09-02T07:46:00Z</time>
      </trkpt>
      <trkpt lat="44.73477" lon="0.58177">
        <ele>124</ele>
        <time>2019-09-02T07:46:17Z</time>
      </trkpt>
      <trkpt lat="44.73499" lon="0.58168">
        <ele>123</ele>
        <time>2019-09-02T07:46:35Z</time>
      </trkpt>
      <trkpt lat="44.73522" lon="0.58161">
        <ele>123</ele>
        <time>2019-09-02T07:46:51Z</time>
      </trkpt>
      <trkpt lat="44.73543" lon="0.58154">
        <ele>122</ele>
        <time>2019-09-02T07:47:08Z</time>
      </trkpt>
      <trkpt lat="44.73563" lon="0.58146">
        <ele>122</ele>
        <time>2019-09-02T07:47:25Z</time>
      </trkpt>
      <trkpt lat="44.73582" lon="0.58138">
        <ele>122</ele>
        <time>2019-09-02T07:47:40Z</time>
      </trkpt>
      <trkpt lat="44.73602" lon="0.58128">
        <ele>122</ele>
        <time>2019-09-02T07:47:58Z</time>
      </trkpt>
      <trkpt lat="44.73621" lon="0.58118">
        <ele>122</ele>
        <time>2019-09-02T07:48:15Z</time>
      </trkpt>
      <trkpt lat="44.73639" lon="0.5811">
        <ele>121</ele>
        <time>2019-09-02T07:48:31Z</time>
      </trkpt>
      <trkpt lat="44.73657" lon="0.581">
        <ele>121</ele>
        <time>2019-09-02T07:48:47Z</time>
      </trkpt>
      <trkpt lat="44.73669" lon="0.58094">
        <ele>121</ele>
        <time>2019-09-02T07:48:57Z</time>
      </trkpt>
      <trkpt lat="44.73671" lon="0.58094">
        <ele>121</ele>
        <time>2019-09-02T07:48:59Z</time>
      </trkpt>
      <trkpt lat="44.73675" lon="0.58092">
        <ele>120</ele>
        <time>2019-09-02T07:49:03Z</time>
      </trkpt>
      <trkpt lat="44.73693" lon="0.58086">
        <ele>120</ele>
        <time>2019-09-02T07:49:18Z</time>
      </trkpt>
      <trkpt lat="44.73711" lon="0.58074">
        <ele>119</ele>
        <time>2019-09-02T07:49:34Z</time>
      </trkpt>
      <trkpt lat="44.73723" lon="0.58065">
        <ele>118</ele>
        <time>2019-09-02T07:49:47Z</time>
      </trkpt>
      <trkpt lat="44.73736" lon="0.58052">
        <ele>118</ele>
        <time>2019-09-02T07:50:01Z</time>
      </trkpt>
      <trkpt lat="44.73749" lon="0.58041">
        <ele>117</ele>
        <time>2019-09-02T07:50:14Z</time>
      </trkpt>
      <trkpt lat="44.73751" lon="0.5804">
        <ele>117</ele>
        <time>2019-09-02T07:50:16Z</time>
      </trkpt>
      <trkpt lat="44.73769" lon="0.58034">
        <ele>115</ele>
        <time>2019-09-02T07:50:31Z</time>
      </trkpt>
      <trkpt lat="44.7378" lon="0.58031">
        <ele>114</ele>
        <time>2019-09-02T07:50:40Z</time>
      </trkpt>
      <trkpt lat="44.73796" lon="0.58021">
        <ele>114</ele>
        <time>2019-09-02T07:50:57Z</time>
      </trkpt>
      <trkpt lat="44.73797" lon="0.5802">
        <ele>114</ele>
        <time>2019-09-02T07:50:58Z</time>
      </trkpt>
      <trkpt lat="44.73807" lon="0.58004">
        <ele>114</ele>
        <time>2019-09-02T07:51:14Z</time>
      </trkpt>
      <trkpt lat="44.73817" lon="0.57994">
        <ele>113</ele>
        <time>2019-09-02T07:51:29Z</time>
      </trkpt>
      <trkpt lat="44.73827" lon="0.5798">
        <ele>112</ele>
        <time>2019-09-02T07:51:44Z</time>
      </trkpt>
      <trkpt lat="44.73841" lon="0.57971">
        <ele>110</ele>
        <time>2019-09-02T07:51:58Z</time>
      </trkpt>
      <trkpt lat="44.7385" lon="0.57955">
        <ele>109</ele>
        <time>2019-09-02T07:52:13Z</time>
      </trkpt>
      <trkpt lat="44.73862" lon="0.57943">
        <ele>108</ele>
        <time>2019-09-02T07:52:26Z</time>
      </trkpt>
      <trkpt lat="44.73878" lon="0.57931">
        <ele>107</ele>
        <time>2019-09-02T07:52:41Z</time>
      </trkpt>
      <trkpt lat="44.73899" lon="0.57934">
        <ele>107</ele>
        <time>2019-09-02T07:52:59Z</time>
      </trkpt>
      <trkpt lat="44.73919" lon="0.57935">
        <ele>106</ele>
        <time>2019-09-02T07:53:17Z</time>
      </trkpt>
      <trkpt lat="44.73938" lon="0.57935">
        <ele>106</ele>
        <time>2019-09-02T07:53:33Z</time>
      </trkpt>
      <trkpt lat="44.73957" lon="0.57935">
        <ele>106</ele>
        <time>2019-09-02T07:53:49Z</time>
      </trkpt>
      <trkpt lat="44.73977" lon="0.57932">
        <ele>105</ele>
        <time>2019-09-02T07:54:06Z</time>
      </trkpt>
      <trkpt lat="44.73998" lon="0.57929">
        <ele>105</ele>
        <time>2019-09-02T07:54:24Z</time>
      </trkpt>
      <trkpt lat="44.74015" lon="0.57928">
        <ele>105</ele>
        <time>2019-09-02T07:54:39Z</time>
      </trkpt>
      <trkpt lat="44.74033" lon="0.5793">
        <ele>105</ele>
        <time>2019-09-02T07:54:54Z</time>
      </trkpt>
      <trkpt lat="44.74039" lon="0.5793">
        <ele>105</ele>
        <time>2019-09-02T07:54:59Z</time>
      </trkpt>
      <trkpt lat="44.74056" lon="0.57901">
        <ele>105</ele>
        <time>2019-09-02T07:55:20Z</time>
      </trkpt>
      <trkpt lat="44.74071" lon="0.57875">
        <ele>105</ele>
        <time>2019-09-02T07:55:39Z</time>
      </trkpt>
      <trkpt lat="44.74086" lon="0.57851">
        <ele>105</ele>
        <time>2019-09-02T07:55:57Z</time>
      </trkpt>
      <trkpt lat="44.74088" lon="0.57848">
        <ele>105</ele>
        <time>2019-09-02T07:56:00Z</time>
      </trkpt>
      <trkpt lat="44.74101" lon="0.57815">
        <ele>105</ele>
        <time>2019-09-02T07:56:22Z</time>
      </trkpt>
      <trkpt lat="44.74105" lon="0.57792">
        <ele>105</ele>
        <time>2019-09-02T07:56:37Z</time>
      </trkpt>
      <trkpt lat="44.74109" lon="0.57765">
        <ele>105</ele>
        <time>2019-09-02T07:56:54Z</time>
      </trkpt>
      <trkpt lat="44.7411" lon="0.57753">
        <ele>106</ele>
        <time>2019-09-02T07:57:01Z</time>
      </trkpt>
      <trkpt lat="44.74113" lon="0.57724">
        <ele>106</ele>
        <time>2019-09-02T07:57:19Z</time>
      </trkpt>
      <trkpt lat="44.74117" lon="0.57701">
        <ele>107</ele>
        <time>2019-09-02T07:57:34Z</time>
      </trkpt>
      <trkpt lat="44.74121" lon="0.57676">
        <ele>108</ele>
        <time>2019-09-02T07:57:50Z</time>
      </trkpt>
      <trkpt lat="44.74125" lon="0.57657">
        <ele>108</ele>
        <time>2019-09-02T07:58:02Z</time>
      </trkpt>
      <trkpt lat="44.74133" lon="0.57641">
        <ele>109</ele>
        <time>2019-09-02T07:58:16Z</time>
      </trkpt>
      <trkpt lat="44.74144" lon="0.57626">
        <ele>110</ele>
        <time>2019-09-02T07:58:31Z</time>
      </trkpt>
      <trkpt lat="44.74145" lon="0.57624">
        <ele>110</ele>
        <time>2019-09-02T07:58:33Z</time>
      </trkpt>
      <trkpt lat="44.74158" lon="0.57609">
        <ele>110</ele>
        <time>2019-09-02T07:58:49Z</time>
      </trkpt>
      <trkpt lat="44.74165" lon="0.57603">
        <ele>110</ele>
        <time>2019-09-02T07:58:56Z</time>
      </trkpt>
      <trkpt lat="44.74179" lon="0.57597">
        <ele>109</ele>
        <time>2019-09-02T07:59:09Z</time>
      </trkpt>
      <trkpt lat="44.74189" lon="0.57591">
        <ele>108</ele>
        <time>2019-09-02T07:59:20Z</time>
      </trkpt>
      <trkpt lat="44.74203" lon="0.57585">
        <ele>108</ele>
        <time>2019-09-02T07:59:32Z</time>
      </trkpt>
      <trkpt lat="44.74219" lon="0.57575">
        <ele>108</ele>
        <time>2019-09-02T07:59:45Z</time>
      </trkpt>
      <trkpt lat="44.74225" lon="0.57569">
        <ele>108</ele>
        <time>2019-09-02T07:59:52Z</time>
      </trkpt>
      <trkpt lat="44.74239" lon="0.57563">
        <ele>108</ele>
        <time>2019-09-02T08:00:05Z</time>
      </trkpt>
      <trkpt lat="44.74245" lon="0.57557">
        <ele>108</ele>
        <time>2019-09-02T08:00:17Z</time>
      </trkpt>
      <trkpt lat="44.7426" lon="0.57548">
        <ele>110</ele>
        <time>2019-09-02T08:00:30Z</time>
      </trkpt>
      <trkpt lat="44.7427" lon="0.57539">
        <ele>110</ele>
        <time>2019-09-02T08:00:42Z</time>
      </trkpt>
      <trkpt lat="44.74276" lon="0.57535">
        <ele>111</ele>
        <time>2019-09-02T08:00:47Z</time>
      </trkpt>
      <trkpt lat="44.74291" lon="0.57524">
        <ele>112</ele>
        <time>2019-09-02T08:01:00Z</time>
      </trkpt>
      <trkpt lat="44.74304" lon="0.57512">
        <ele>114</ele>
        <time>2019-09-02T08:01:15Z</time>
      </trkpt>
      <trkpt lat="44.74313" lon="0.57504">
        <ele>115</ele>
        <time>2019-09-02T08:01:28Z</time>
      </trkpt>
      <trkpt lat="44.7432" lon="0.57499">
        <ele>116</ele>
        <time>2019-09-02T08:01:41Z</time>
      </trkpt>
      <trkpt lat="44.74328" lon="0.57492">
        <ele>117</ele>
        <time>2019-09-02T08:01:53Z</time>
      </trkpt>
      <trkpt lat="44.74343" lon="0.57483">
        <ele>118</ele>
        <time>2019-09-02T08:02:09Z</time>
      </trkpt>
      <trkpt lat="44.74359" lon="0.57471">
        <ele>119</ele>
        <time>2019-09-02T08:02:25Z</time>
      </trkpt>
      <trkpt lat="44.74364" lon="0.57464">
        <ele>120</ele>
        <time>2019-09-02T08:02:41Z</time>
      </trkpt>
      <trkpt lat="44.74364" lon="0.57462">
        <ele>120</ele>
        <time>2019-09-02T08:03:02Z</time>
      </trkpt>
      <trkpt lat="44.74367" lon="0.57464">
        <ele>120</ele>
        <time>2019-09-02T08:03:21Z</time>
      </trkpt>
      <trkpt lat="44.74366" lon="0.57464">
        <ele>120</ele>
        <time>2019-09-02T08:03:42Z</time>
      </trkpt>
      <trkpt lat="44.74365" lon="0.57463">
        <ele>120</ele>
        <time>2019-09-02T08:04:07Z</time>
      </trkpt>
      <trkpt lat="44.74363" lon="0.57462">
        <ele>119</ele>
        <time>2019-09-02T08:04:36Z</time>
      </trkpt>
      <trkpt lat="44.74366" lon="0.57462">
        <ele>120</ele>
        <time>2019-09-02T08:04:54Z</time>
      </trkpt>
      <trkpt lat="44.74374" lon="0.57454">
        <ele>120</ele>
        <time>2019-09-02T08:05:10Z</time>
      </trkpt>
      <trkpt lat="44.74393" lon="0.5744">
        <ele>121</ele>
        <time>2019-09-02T08:05:29Z</time>
      </trkpt>
      <trkpt lat="44.74408" lon="0.57431">
        <ele>122</ele>
        <time>2019-09-02T08:05:44Z</time>
      </trkpt>
      <trkpt lat="44.74424" lon="0.57421">
        <ele>122</ele>
        <time>2019-09-02T08:05:58Z</time>
      </trkpt>
      <trkpt lat="44.74445" lon="0.57409">
        <ele>123</ele>
        <time>2019-09-02T08:06:19Z</time>
      </trkpt>
      <trkpt lat="44.74466" lon="0.574">
        <ele>124</ele>
        <time>2019-09-02T08:06:38Z</time>
      </trkpt>
      <trkpt lat="44.74487" lon="0.57393">
        <ele>125</ele>
        <time>2019-09-02T08:06:57Z</time>
      </trkpt>
      <trkpt lat="44.745" lon="0.5739">
        <ele>125</ele>
        <time>2019-09-02T08:07:10Z</time>
      </trkpt>
      <trkpt lat="44.74502" lon="0.57396">
        <ele>125</ele>
        <time>2019-09-02T08:07:14Z</time>
      </trkpt>
      <trkpt lat="44.74506" lon="0.57424">
        <ele>124</ele>
        <time>2019-09-02T08:07:32Z</time>
      </trkpt>
      <trkpt lat="44.74512" lon="0.57452">
        <ele>122</ele>
        <time>2019-09-02T08:07:51Z</time>
      </trkpt>
      <trkpt lat="44.74517" lon="0.5748">
        <ele>121</ele>
        <time>2019-09-02T08:08:09Z</time>
      </trkpt>
      <trkpt lat="44.74517" lon="0.57507">
        <ele>119</ele>
        <time>2019-09-02T08:08:27Z</time>
      </trkpt>
      <trkpt lat="44.74509" lon="0.57532">
        <ele>117</ele>
        <time>2019-09-02T08:08:44Z</time>
      </trkpt>
      <trkpt lat="44.74499" lon="0.57561">
        <ele>116</ele>
        <time>2019-09-02T08:09:03Z</time>
      </trkpt>
      <trkpt lat="44.74492" lon="0.57583">
        <ele>115</ele>
        <time>2019-09-02T08:09:18Z</time>
      </trkpt>
      <trkpt lat="44.74486" lon="0.57606">
        <ele>113</ele>
        <time>2019-09-02T08:09:34Z</time>
      </trkpt>
      <trkpt lat="44.74478" lon="0.57631">
        <ele>111</ele>
        <time>2019-09-02T08:09:51Z</time>
      </trkpt>
      <trkpt lat="44.74471" lon="0.57654">
        <ele>110</ele>
        <time>2019-09-02T08:10:07Z</time>
      </trkpt>
      <trkpt lat="44.74463" lon="0.57679">
        <ele>109</ele>
        <time>2019-09-02T08:10:23Z</time>
      </trkpt>
      <trkpt lat="44.74452" lon="0.57706">
        <ele>109</ele>
        <time>2019-09-02T08:10:41Z</time>
      </trkpt>
      <trkpt lat="44.74443" lon="0.57732">
        <ele>109</ele>
        <time>2019-09-02T08:10:58Z</time>
      </trkpt>
      <trkpt lat="44.74432" lon="0.57759">
        <ele>108</ele>
        <time>2019-09-02T08:11:17Z</time>
      </trkpt>
      <trkpt lat="44.74419" lon="0.57775">
        <ele>108</ele>
        <time>2019-09-02T08:11:33Z</time>
      </trkpt>
      <trkpt lat="44.74407" lon="0.57789">
        <ele>108</ele>
        <time>2019-09-02T08:11:48Z</time>
      </trkpt>
      <trkpt lat="44.74395" lon="0.57801">
        <ele>108</ele>
        <time>2019-09-02T08:12:03Z</time>
      </trkpt>
      <trkpt lat="44.7438" lon="0.57823">
        <ele>106</ele>
        <time>2019-09-02T08:12:20Z</time>
      </trkpt>
      <trkpt lat="44.7437" lon="0.57848">
        <ele>105</ele>
        <time>2019-09-02T08:12:36Z</time>
      </trkpt>
      <trkpt lat="44.74366" lon="0.57874">
        <ele>105</ele>
        <time>2019-09-02T08:12:52Z</time>
      </trkpt>
      <trkpt lat="44.74363" lon="0.579">
        <ele>104</ele>
        <time>2019-09-02T08:13:08Z</time>
      </trkpt>
      <trkpt lat="44.74363" lon="0.57925">
        <ele>103</ele>
        <time>2019-09-02T08:13:24Z</time>
      </trkpt>
      <trkpt lat="44.7436" lon="0.57953">
        <ele>102</ele>
        <time>2019-09-02T08:13:42Z</time>
      </trkpt>
      <trkpt lat="44.74359" lon="0.57982">
        <ele>102</ele>
        <time>2019-09-02T08:13:59Z</time>
      </trkpt>
      <trkpt lat="44.74355" lon="0.58012">
        <ele>101</ele>
        <time>2019-09-02T08:14:19Z</time>
      </trkpt>
      <trkpt lat="44.74354" lon="0.58034">
        <ele>101</ele>
        <time>2019-09-02T08:14:32Z</time>
      </trkpt>
      <trkpt lat="44.74359" lon="0.58055">
        <ele>101</ele>
        <time>2019-09-02T08:14:47Z</time>
      </trkpt>
      <trkpt lat="44.74357" lon="0.58056">
        <ele>101</ele>
        <time>2019-09-02T08:15:05Z</time>
      </trkpt>
      <trkpt lat="44.74358" lon="0.58056">
        <ele>101</ele>
        <time>2019-09-02T08:15:19Z</time>
      </trkpt>
      <trkpt lat="44.74356" lon="0.58054">
        <ele>101</ele>
        <time>2019-09-02T08:15:42Z</time>
      </trkpt>
      <trkpt lat="44.74357" lon="0.58053">
        <ele>101</ele>
        <time>2019-09-02T08:15:59Z</time>
      </trkpt>
      <trkpt lat="44.74358" lon="0.58052">
        <ele>101</ele>
        <time>2019-09-02T08:16:18Z</time>
      </trkpt>
      <trkpt lat="44.74357" lon="0.58053">
        <ele>101</ele>
        <time>2019-09-02T08:16:37Z</time>
      </trkpt>
      <trkpt lat="44.74356" lon="0.58057">
        <ele>101</ele>
        <time>2019-09-02T08:16:55Z</time>
      </trkpt>
      <trkpt lat="44.74359" lon="0.58056">
        <ele>101</ele>
        <time>2019-09-02T08:17:13Z</time>
      </trkpt>
      <trkpt lat="44.74359" lon="0.58053">
        <ele>101</ele>
        <time>2019-09-02T08:17:30Z</time>
      </trkpt>
      <trkpt lat="44.74358" lon="0.58053">
        <ele>101</ele>
        <time>2019-09-02T08:17:48Z</time>
      </trkpt>
      <trkpt lat="44.74356" lon="0.58052">
        <ele>101</ele>
        <time>2019-09-02T08:18:07Z</time>
      </trkpt>
      <trkpt lat="44.74356" lon="0.58054">
        <ele>101</ele>
        <time>2019-09-02T08:18:30Z</time>
      </trkpt>
      <trkpt lat="44.74361" lon="0.58056">
        <ele>101</ele>
        <time>2019-09-02T08:18:53Z</time>
      </trkpt>
      <trkpt lat="44.74361" lon="0.58056">
        <ele>101</ele>
        <time>2019-09-02T08:19:09Z</time>
      </trkpt>
      <trkpt lat="44.74361" lon="0.58056">
        <ele>101</ele>
        <time>2019-09-02T08:19:33Z</time>
      </trkpt>
      <trkpt lat="44.74358" lon="0.58059">
        <ele>101</ele>
        <time>2019-09-02T08:20:03Z</time>
      </trkpt>
      <trkpt lat="44.74355" lon="0.58049">
        <ele>101</ele>
        <time>2019-09-02T08:20:20Z</time>
      </trkpt>
      <trkpt lat="44.74354" lon="0.58045">
        <ele>101</ele>
        <time>2019-09-02T08:20:33Z</time>
      </trkpt>
      <trkpt lat="44.74354" lon="0.58045">
        <ele>101</ele>
        <time>2019-09-02T08:20:51Z</time>
      </trkpt>
      <trkpt lat="44.74354" lon="0.58045">
        <ele>101</ele>
        <time>2019-09-02T08:21:08Z</time>
      </trkpt>
      <trkpt lat="44.74354" lon="0.58044">
        <ele>101</ele>
        <time>2019-09-02T08:21:32Z</time>
      </trkpt>
      <trkpt lat="44.74353" lon="0.58046">
        <ele>101</ele>
        <time>2019-09-02T08:21:51Z</time>
      </trkpt>
      <trkpt lat="44.74356" lon="0.5805">
        <ele>101</ele>
        <time>2019-09-02T08:22:02Z</time>
      </trkpt>
      <trkpt lat="44.74358" lon="0.58054">
        <ele>101</ele>
        <time>2019-09-02T08:22:26Z</time>
      </trkpt>
      <trkpt lat="44.74359" lon="0.58059">
        <ele>101</ele>
        <time>2019-09-02T08:22:43Z</time>
      </trkpt>
      <trkpt lat="44.74355" lon="0.58061">
        <ele>101</ele>
        <time>2019-09-02T08:23:06Z</time>
      </trkpt>
      <trkpt lat="44.74358" lon="0.58061">
        <ele>101</ele>
        <time>2019-09-02T08:23:27Z</time>
      </trkpt>
      <trkpt lat="44.74358" lon="0.58056">
        <ele>101</ele>
        <time>2019-09-02T08:23:53Z</time>
      </trkpt>
      <trkpt lat="44.74357" lon="0.58057">
        <ele>101</ele>
        <time>2019-09-02T08:24:16Z</time>
      </trkpt>
      <trkpt lat="44.74361" lon="0.58058">
        <ele>101</ele>
        <time>2019-09-02T08:24:35Z</time>
      </trkpt>
      <trkpt lat="44.74358" lon="0.58062">
        <ele>101</ele>
        <time>2019-09-02T08:24:54Z</time>
      </trkpt>
      <trkpt lat="44.74359" lon="0.58061">
        <ele>101</ele>
        <time>2019-09-02T08:25:15Z</time>
      </trkpt>
      <trkpt lat="44.74361" lon="0.58062">
        <ele>101</ele>
        <time>2019-09-02T08:25:18Z</time>
      </trkpt>
      <trkpt lat="44.74374" lon="0.58068">
        <ele>101</ele>
        <time>2019-09-02T08:25:32Z</time>
      </trkpt>
      <trkpt lat="44.7439" lon="0.58077">
        <ele>101</ele>
        <time>2019-09-02T08:25:47Z</time>
      </trkpt>
      <trkpt lat="44.74398" lon="0.58082">
        <ele>101</ele>
        <time>2019-09-02T08:26:03Z</time>
      </trkpt>
      <trkpt lat="44.74405" lon="0.58087">
        <ele>101</ele>
        <time>2019-09-02T08:26:15Z</time>
      </trkpt>
      <trkpt lat="44.74419" lon="0.58095">
        <ele>100</ele>
        <time>2019-09-02T08:26:30Z</time>
      </trkpt>
      <trkpt lat="44.74439" lon="0.58106">
        <ele>100</ele>
        <time>2019-09-02T08:26:49Z</time>
      </trkpt>
      <trkpt lat="44.74451" lon="0.58112">
        <ele>100</ele>
        <time>2019-09-02T08:27:06Z</time>
      </trkpt>
      <trkpt lat="44.74466" lon="0.5812">
        <ele>100</ele>
        <time>2019-09-02T08:27:22Z</time>
      </trkpt>
      <trkpt lat="44.7449" lon="0.58125">
        <ele>100</ele>
        <time>2019-09-02T08:27:41Z</time>
      </trkpt>
      <trkpt lat="44.7451" lon="0.58126">
        <ele>100</ele>
        <time>2019-09-02T08:27:57Z</time>
      </trkpt>
      <trkpt lat="44.74524" lon="0.58128">
        <ele>100</ele>
        <time>2019-09-02T08:28:11Z</time>
      </trkpt>
      <trkpt lat="44.74546" lon="0.58131">
        <ele>100</ele>
        <time>2019-09-02T08:28:28Z</time>
      </trkpt>
      <trkpt lat="44.74564" lon="0.58135">
        <ele>100</ele>
        <time>2019-09-02T08:28:46Z</time>
      </trkpt>
      <trkpt lat="44.74563" lon="0.58136">
        <ele>100</ele>
        <time>2019-09-02T08:28:49Z</time>
      </trkpt>
      <trkpt lat="44.74582" lon="0.58143">
        <ele>100</ele>
        <time>2019-09-02T08:29:06Z</time>
      </trkpt>
      <trkpt lat="44.74603" lon="0.58154">
        <ele>100</ele>
        <time>2019-09-02T08:29:24Z</time>
      </trkpt>
      <trkpt lat="44.74622" lon="0.58164">
        <ele>99</ele>
        <time>2019-09-02T08:29:40Z</time>
      </trkpt>
      <trkpt lat="44.74636" lon="0.58175">
        <ele>99</ele>
        <time>2019-09-02T08:29:54Z</time>
      </trkpt>
      <trkpt lat="44.74651" lon="0.58188">
        <ele>98</ele>
        <time>2019-09-02T08:30:09Z</time>
      </trkpt>
      <trkpt lat="44.74668" lon="0.58203">
        <ele>97</ele>
        <time>2019-09-02T08:30:25Z</time>
      </trkpt>
      <trkpt lat="44.7467" lon="0.58208">
        <ele>97</ele>
        <time>2019-09-02T08:30:28Z</time>
      </trkpt>
      <trkpt lat="44.74659" lon="0.58225">
        <ele>97</ele>
        <time>2019-09-02T08:30:43Z</time>
      </trkpt>
      <trkpt lat="44.74649" lon="0.58237">
        <ele>97</ele>
        <time>2019-09-02T08:30:54Z</time>
      </trkpt>
      <trkpt lat="44.74637" lon="0.58253">
        <ele>97</ele>
        <time>2019-09-02T08:31:10Z</time>
      </trkpt>
      <trkpt lat="44.74626" lon="0.58266">
        <ele>97</ele>
        <time>2019-09-02T08:31:23Z</time>
      </trkpt>
      <trkpt lat="44.74625" lon="0.58269">
        <ele>97</ele>
        <time>2019-09-02T08:31:25Z</time>
      </trkpt>
      <trkpt lat="44.74618" lon="0.58278">
        <ele>98</ele>
        <time>2019-09-02T08:31:37Z</time>
      </trkpt>
      <trkpt lat="44.74619" lon="0.5828">
        <ele>98</ele>
        <time>2019-09-02T08:31:43Z</time>
      </trkpt>
      <trkpt lat="44.74621" lon="0.58284">
        <ele>98</ele>
        <time>2019-09-02T08:31:46Z</time>
      </trkpt>
      <trkpt lat="44.74624" lon="0.58287">
        <ele>98</ele>
        <time>2019-09-02T08:31:49Z</time>
      </trkpt>
      <trkpt lat="44.7463" lon="0.58299">
        <ele>98</ele>
        <time>2019-09-02T08:31:59Z</time>
      </trkpt>
      <trkpt lat="44.74641" lon="0.58319">
        <ele>98</ele>
        <time>2019-09-02T08:32:14Z</time>
      </trkpt>
      <trkpt lat="44.74652" lon="0.58341">
        <ele>99</ele>
        <time>2019-09-02T08:32:32Z</time>
      </trkpt>
      <trkpt lat="44.74657" lon="0.58354">
        <ele>99</ele>
        <time>2019-09-02T08:32:39Z</time>
      </trkpt>
      <trkpt lat="44.7467" lon="0.58376">
        <ele>100</ele>
        <time>2019-09-02T08:32:55Z</time>
      </trkpt>
      <trkpt lat="44.74678" lon="0.58395">
        <ele>100</ele>
        <time>2019-09-02T08:33:09Z</time>
      </trkpt>
      <trkpt lat="44.74687" lon="0.58408">
        <ele>100</ele>
        <time>2019-09-02T08:33:22Z</time>
      </trkpt>
      <trkpt lat="44.74697" lon="0.58423">
        <ele>100</ele>
        <time>2019-09-02T08:33:32Z</time>
      </trkpt>
      <trkpt lat="44.74704" lon="0.58432">
        <ele>99</ele>
        <time>2019-09-02T08:33:40Z</time>
      </trkpt>
      <trkpt lat="44.74707" lon="0.58436">
        <ele>99</ele>
        <time>2019-09-02T08:33:44Z</time>
      </trkpt>
      <trkpt lat="44.7472" lon="0.58458">
        <ele>99</ele>
        <time>2019-09-02T08:34:01Z</time>
      </trkpt>
      <trkpt lat="44.74723" lon="0.58461">
        <ele>99</ele>
        <time>2019-09-02T08:34:03Z</time>
      </trkpt>
      <trkpt lat="44.74738" lon="0.58484">
        <ele>98</ele>
        <time>2019-09-02T08:34:20Z</time>
      </trkpt>
      <trkpt lat="44.74743" lon="0.58491">
        <ele>98</ele>
        <time>2019-09-02T08:34:26Z</time>
      </trkpt>
      <trkpt lat="44.74756" lon="0.58509">
        <ele>97</ele>
        <time>2019-09-02T08:34:42Z</time>
      </trkpt>
      <trkpt lat="44.74764" lon="0.58519">
        <ele>96</ele>
        <time>2019-09-02T08:34:53Z</time>
      </trkpt>
      <trkpt lat="44.74772" lon="0.58533">
        <ele>96</ele>
        <time>2019-09-02T08:35:05Z</time>
      </trkpt>
      <trkpt lat="44.74774" lon="0.58538">
        <ele>96</ele>
        <time>2019-09-02T08:35:10Z</time>
      </trkpt>
      <trkpt lat="44.74772" lon="0.58567">
        <ele>96</ele>
        <time>2019-09-02T08:35:26Z</time>
      </trkpt>
      <trkpt lat="44.74772" lon="0.58569">
        <ele>96</ele>
        <time>2019-09-02T08:35:27Z</time>
      </trkpt>
      <trkpt lat="44.74773" lon="0.58591">
        <ele>97</ele>
        <time>2019-09-02T08:35:40Z</time>
      </trkpt>
      <trkpt lat="44.74777" lon="0.58577">
        <ele>96</ele>
        <time>2019-09-02T08:35:53Z</time>
      </trkpt>
      <trkpt lat="44.74784" lon="0.58563">
        <ele>96</ele>
        <time>2019-09-02T08:36:05Z</time>
      </trkpt>
      <trkpt lat="44.74789" lon="0.58543">
        <ele>95</ele>
        <time>2019-09-02T08:36:18Z</time>
      </trkpt>
      <trkpt lat="44.74796" lon="0.58525">
        <ele>94</ele>
        <time>2019-09-02T08:36:31Z</time>
      </trkpt>
      <trkpt lat="44.74803" lon="0.58508">
        <ele>94</ele>
        <time>2019-09-02T08:36:43Z</time>
      </trkpt>
      <trkpt lat="44.74811" lon="0.58492">
        <ele>94</ele>
        <time>2019-09-02T08:36:56Z</time>
      </trkpt>
      <trkpt lat="44.74824" lon="0.58479">
        <ele>93</ele>
        <time>2019-09-02T08:37:11Z</time>
      </trkpt>
      <trkpt lat="44.74839" lon="0.5847">
        <ele>92</ele>
        <time>2019-09-02T08:37:25Z</time>
      </trkpt>
      <trkpt lat="44.74845" lon="0.58465">
        <ele>92</ele>
        <time>2019-09-02T08:37:32Z</time>
      </trkpt>
      <trkpt lat="44.74859" lon="0.58459">
        <ele>91</ele>
        <time>2019-09-02T08:37:45Z</time>
      </trkpt>
      <trkpt lat="44.7486" lon="0.58459">
        <ele>91</ele>
        <time>2019-09-02T08:37:46Z</time>
      </trkpt>
      <trkpt lat="44.74877" lon="0.58468">
        <ele>91</ele>
        <time>2019-09-02T08:38:01Z</time>
      </trkpt>
      <trkpt lat="44.74886" lon="0.58478">
        <ele>92</ele>
        <time>2019-09-02T08:38:14Z</time>
      </trkpt>
      <trkpt lat="44.74898" lon="0.58493">
        <ele>93</ele>
        <time>2019-09-02T08:38:29Z</time>
      </trkpt>
      <trkpt lat="44.74909" lon="0.58496">
        <ele>93</ele>
        <time>2019-09-02T08:38:42Z</time>
      </trkpt>
      <trkpt lat="44.74928" lon="0.5849">
        <ele>92</ele>
        <time>2019-09-02T08:38:59Z</time>
      </trkpt>
      <trkpt lat="44.74944" lon="0.58486">
        <ele>92</ele>
        <time>2019-09-02T08:39:14Z</time>
      </trkpt>
      <trkpt lat="44.74953" lon="0.58484">
        <ele>91</ele>
        <time>2019-09-02T08:39:22Z</time>
      </trkpt>
      <trkpt lat="44.74959" lon="0.58482">
        <ele>91</ele>
        <time>2019-09-02T08:39:28Z</time>
      </trkpt>
      <trkpt lat="44.74974" lon="0.58482">
        <ele>91</ele>
        <time>2019-09-02T08:39:41Z</time>
      </trkpt>
      <trkpt lat="44.74989" lon="0.58482">
        <ele>90</ele>
        <time>2019-09-02T08:39:52Z</time>
      </trkpt>
      <trkpt lat="44.75005" lon="0.58487">
        <ele>90</ele>
        <time>2019-09-02T08:40:06Z</time>
      </trkpt>
      <trkpt lat="44.75024" lon="0.58494">
        <ele>90</ele>
        <time>2019-09-02T08:40:23Z</time>
      </trkpt>
      <trkpt lat="44.75043" lon="0.58502">
        <ele>91</ele>
        <time>2019-09-02T08:40:38Z</time>
      </trkpt>
      <trkpt lat="44.75055" lon="0.585">
        <ele>90</ele>
        <time>2019-09-02T08:40:51Z</time>
      </trkpt>
      <trkpt lat="44.75066" lon="0.58498">
        <ele>90</ele>
        <time>2019-09-02T08:41:00Z</time>
      </trkpt>
      <trkpt lat="44.75082" lon="0.58491">
        <ele>90</ele>
        <time>2019-09-02T08:41:14Z</time>
      </trkpt>
      <trkpt lat="44.75095" lon="0.58483">
        <ele>89</ele>
        <time>2019-09-02T08:41:28Z</time>
      </trkpt>
      <trkpt lat="44.7511" lon="0.58478">
        <ele>89</ele>
        <time>2019-09-02T08:41:40Z</time>
      </trkpt>
      <trkpt lat="44.75125" lon="0.5848">
        <ele>90</ele>
        <time>2019-09-02T08:41:53Z</time>
      </trkpt>
      <trkpt lat="44.75131" lon="0.58476">
        <ele>90</ele>
        <time>2019-09-02T08:42:00Z</time>
      </trkpt>
      <trkpt lat="44.75137" lon="0.58462">
        <ele>90</ele>
        <time>2019-09-02T08:42:12Z</time>
      </trkpt>
      <trkpt lat="44.75144" lon="0.5844">
        <ele>89</ele>
        <time>2019-09-02T08:42:27Z</time>
      </trkpt>
      <trkpt lat="44.7515" lon="0.58419">
        <ele>89</ele>
        <time>2019-09-02T08:42:42Z</time>
      </trkpt>
      <trkpt lat="44.7515" lon="0.58418">
        <ele>89</ele>
        <time>2019-09-02T08:42:43Z</time>
      </trkpt>
      <trkpt lat="44.75159" lon="0.58399">
        <ele>89</ele>
        <time>2019-09-02T08:42:57Z</time>
      </trkpt>
      <trkpt lat="44.75169" lon="0.58383">
        <ele>89</ele>
        <time>2019-09-02T08:43:11Z</time>
      </trkpt>
      <trkpt lat="44.7518" lon="0.58371">
        <ele>89</ele>
        <time>2019-09-02T08:43:24Z</time>
      </trkpt>
      <trkpt lat="44.75197" lon="0.58365">
        <ele>90</ele>
        <time>2019-09-02T08:43:39Z</time>
      </trkpt>
      <trkpt lat="44.75214" lon="0.58363">
        <ele>90</ele>
        <time>2019-09-02T08:43:53Z</time>
      </trkpt>
      <trkpt lat="44.75229" lon="0.58357">
        <ele>90</ele>
        <time>2019-09-02T08:44:06Z</time>
      </trkpt>
      <trkpt lat="44.75247" lon="0.58347">
        <ele>89</ele>
        <time>2019-09-02T08:44:23Z</time>
      </trkpt>
      <trkpt lat="44.75264" lon="0.58336">
        <ele>88</ele>
        <time>2019-09-02T08:44:41Z</time>
      </trkpt>
      <trkpt lat="44.7527" lon="0.58331">
        <ele>88</ele>
        <time>2019-09-02T08:44:48Z</time>
      </trkpt>
      <trkpt lat="44.75279" lon="0.58326">
        <ele>88</ele>
        <time>2019-09-02T08:44:56Z</time>
      </trkpt>
      <trkpt lat="44.75296" lon="0.58327">
        <ele>88</ele>
        <time>2019-09-02T08:45:10Z</time>
      </trkpt>
      <trkpt lat="44.75315" lon="0.58328">
        <ele>87</ele>
        <time>2019-09-02T08:45:24Z</time>
      </trkpt>
      <trkpt lat="44.75333" lon="0.58336">
        <ele>87</ele>
        <time>2019-09-02T08:45:38Z</time>
      </trkpt>
      <trkpt lat="44.75347" lon="0.58344">
        <ele>87</ele>
        <time>2019-09-02T08:45:52Z</time>
      </trkpt>
      <trkpt lat="44.75366" lon="0.5835">
        <ele>87</ele>
        <time>2019-09-02T08:46:07Z</time>
      </trkpt>
      <trkpt lat="44.75385" lon="0.58356">
        <ele>87</ele>
        <time>2019-09-02T08:46:23Z</time>
      </trkpt>
      <trkpt lat="44.75399" lon="0.58365">
        <ele>88</ele>
        <time>2019-09-02T08:46:37Z</time>
      </trkpt>
      <trkpt lat="44.75414" lon="0.58374">
        <ele>89</ele>
        <time>2019-09-02T08:46:52Z</time>
      </trkpt>
      <trkpt lat="44.75431" lon="0.58387">
        <ele>90</ele>
        <time>2019-09-02T08:47:08Z</time>
      </trkpt>
      <trkpt lat="44.75447" lon="0.58401">
        <ele>90</ele>
        <time>2019-09-02T08:47:24Z</time>
      </trkpt>
      <trkpt lat="44.75455" lon="0.58408">
        <ele>91</ele>
        <time>2019-09-02T08:47:33Z</time>
      </trkpt>
      <trkpt lat="44.7546" lon="0.58417">
        <ele>91</ele>
        <time>2019-09-02T08:47:39Z</time>
      </trkpt>
      <trkpt lat="44.75467" lon="0.58441">
        <ele>92</ele>
        <time>2019-09-02T08:47:55Z</time>
      </trkpt>
      <trkpt lat="44.75473" lon="0.58466">
        <ele>93</ele>
        <time>2019-09-02T08:48:10Z</time>
      </trkpt>
      <trkpt lat="44.75485" lon="0.58477">
        <ele>93</ele>
        <time>2019-09-02T08:48:22Z</time>
      </trkpt>
      <trkpt lat="44.75491" lon="0.58475">
        <ele>93</ele>
        <time>2019-09-02T08:48:27Z</time>
      </trkpt>
      <trkpt lat="44.75506" lon="0.5847">
        <ele>93</ele>
        <time>2019-09-02T08:48:41Z</time>
      </trkpt>
      <trkpt lat="44.75508" lon="0.5847">
        <ele>93</ele>
        <time>2019-09-02T08:48:43Z</time>
      </trkpt>
      <trkpt lat="44.75526" lon="0.58488">
        <ele>94</ele>
        <time>2019-09-02T08:49:01Z</time>
      </trkpt>
      <trkpt lat="44.75542" lon="0.58493">
        <ele>95</ele>
        <time>2019-09-02T08:49:16Z</time>
      </trkpt>
      <trkpt lat="44.75548" lon="0.58494">
        <ele>95</ele>
        <time>2019-09-02T08:49:21Z</time>
      </trkpt>
      <trkpt lat="44.75549" lon="0.58497">
        <ele>95</ele>
        <time>2019-09-02T08:49:23Z</time>
      </trkpt>
      <trkpt lat="44.75551" lon="0.58527">
        <ele>95</ele>
        <time>2019-09-02T08:49:41Z</time>
      </trkpt>
      <trkpt lat="44.75551" lon="0.58552">
        <ele>95</ele>
        <time>2019-09-02T08:49:55Z</time>
      </trkpt>
      <trkpt lat="44.75552" lon="0.58583">
        <ele>96</ele>
        <time>2019-09-02T08:50:13Z</time>
      </trkpt>
      <trkpt lat="44.75552" lon="0.58616">
        <ele>97</ele>
        <time>2019-09-02T08:50:32Z</time>
      </trkpt>
      <trkpt lat="44.75552" lon="0.58647">
        <ele>97</ele>
        <time>2019-09-02T08:50:50Z</time>
      </trkpt>
      <trkpt lat="44.75552" lon="0.58671">
        <ele>98</ele>
        <time>2019-09-02T08:51:05Z</time>
      </trkpt>
      <trkpt lat="44.75553" lon="0.58698">
        <ele>98</ele>
        <time>2019-09-02T08:51:21Z</time>
      </trkpt>
      <trkpt lat="44.75554" lon="0.58728">
        <ele>99</ele>
        <time>2019-09-02T08:51:39Z</time>
      </trkpt>
      <trkpt lat="44.75555" lon="0.58756">
        <ele>100</ele>
        <time>2019-09-02T08:51:55Z</time>
      </trkpt>
      <trkpt lat="44.75555" lon="0.58789">
        <ele>101</ele>
        <time>2019-09-02T08:52:14Z</time>
      </trkpt>
      <trkpt lat="44.75556" lon="0.5882">
        <ele>101</ele>
        <time>2019-09-02T08:52:32Z</time>
      </trkpt>
      <trkpt lat="44.75556" lon="0.58853">
        <ele>102</ele>
        <time>2019-09-02T08:52:51Z</time>
      </trkpt>
      <trkpt lat="44.75557" lon="0.58876">
        <ele>102</ele>
        <time>2019-09-02T08:53:05Z</time>
      </trkpt>
      <trkpt lat="44.75557" lon="0.58899">
        <ele>102</ele>
        <time>2019-09-02T08:53:18Z</time>
      </trkpt>
      <trkpt lat="44.75556" lon="0.58921">
        <ele>102</ele>
        <time>2019-09-02T08:53:31Z</time>
      </trkpt>
      <trkpt lat="44.75554" lon="0.58943">
        <ele>102</ele>
        <time>2019-09-02T08:53:45Z</time>
      </trkpt>
      <trkpt lat="44.75551" lon="0.5897">
        <ele>103</ele>
        <time>2019-09-02T08:53:59Z</time>
      </trkpt>
      <trkpt lat="44.75549" lon="0.58992">
        <ele>103</ele>
        <time>2019-09-02T08:54:12Z</time>
      </trkpt>
      <trkpt lat="44.75542" lon="0.59018">
        <ele>104</ele>
        <time>2019-09-02T08:54:28Z</time>
      </trkpt>
      <trkpt lat="44.75529" lon="0.59036">
        <ele>104</ele>
        <time>2019-09-02T08:54:43Z</time>
      </trkpt>
      <trkpt lat="44.75524" lon="0.59042">
        <ele>105</ele>
        <time>2019-09-02T08:54:49Z</time>
      </trkpt>
      <trkpt lat="44.7551" lon="0.59058">
        <ele>105</ele>
        <time>2019-09-02T08:55:05Z</time>
      </trkpt>
      <trkpt lat="44.75494" lon="0.59076">
        <ele>105</ele>
        <time>2019-09-02T08:55:21Z</time>
      </trkpt>
      <trkpt lat="44.7548" lon="0.59089">
        <ele>105</ele>
        <time>2019-09-02T08:55:36Z</time>
      </trkpt>
      <trkpt lat="44.75471" lon="0.59095">
        <ele>106</ele>
        <time>2019-09-02T08:55:45Z</time>
      </trkpt>
      <trkpt lat="44.75463" lon="0.59101">
        <ele>106</ele>
        <time>2019-09-02T08:55:53Z</time>
      </trkpt>
      <trkpt lat="44.75444" lon="0.59116">
        <ele>106</ele>
        <time>2019-09-02T08:56:11Z</time>
      </trkpt>
      <trkpt lat="44.75427" lon="0.5913">
        <ele>107</ele>
        <time>2019-09-02T08:56:26Z</time>
      </trkpt>
      <trkpt lat="44.75411" lon="0.59142">
        <ele>108</ele>
        <time>2019-09-02T08:56:41Z</time>
      </trkpt>
      <trkpt lat="44.75405" lon="0.59146">
        <ele>108</ele>
        <time>2019-09-02T08:56:47Z</time>
      </trkpt>
      <trkpt lat="44.75398" lon="0.59152">
        <ele>108</ele>
        <time>2019-09-02T08:56:53Z</time>
      </trkpt>
      <trkpt lat="44.75384" lon="0.59163">
        <ele>109</ele>
        <time>2019-09-02T08:57:07Z</time>
      </trkpt>
      <trkpt lat="44.75367" lon="0.59175">
        <ele>109</ele>
        <time>2019-09-02T08:57:22Z</time>
      </trkpt>
      <trkpt lat="44.75349" lon="0.59186">
        <ele>110</ele>
        <time>2019-09-02T08:57:38Z</time>
      </trkpt>
      <trkpt lat="44.75329" lon="0.59196">
        <ele>110</ele>
        <time>2019-09-02T08:57:54Z</time>
      </trkpt>
      <trkpt lat="44.75317" lon="0.59202">
        <ele>110</ele>
        <time>2019-09-02T08:58:04Z</time>
      </trkpt>
      <trkpt lat="44.75313" lon="0.59206">
        <ele>110</ele>
        <time>2019-09-02T08:58:08Z</time>
      </trkpt>
      <trkpt lat="44.75294" lon="0.59213">
        <ele>110</ele>
        <time>2019-09-02T08:58:23Z</time>
      </trkpt>
      <trkpt lat="44.75277" lon="0.5922">
        <ele>110</ele>
        <time>2019-09-02T08:58:40Z</time>
      </trkpt>
      <trkpt lat="44.75256" lon="0.59227">
        <ele>111</ele>
        <time>2019-09-02T08:58:57Z</time>
      </trkpt>
      <trkpt lat="44.75237" lon="0.59233">
        <ele>111</ele>
        <time>2019-09-02T08:59:13Z</time>
      </trkpt>
      <trkpt lat="44.75216" lon="0.5924">
        <ele>112</ele>
        <time>2019-09-02T08:59:30Z</time>
      </trkpt>
      <trkpt lat="44.75196" lon="0.59245">
        <ele>113</ele>
        <time>2019-09-02T08:59:48Z</time>
      </trkpt>
      <trkpt lat="44.75177" lon="0.59251">
        <ele>113</ele>
        <time>2019-09-02T09:00:04Z</time>
      </trkpt>
      <trkpt lat="44.7516" lon="0.5926">
        <ele>114</ele>
        <time>2019-09-02T09:00:20Z</time>
      </trkpt>
      <trkpt lat="44.75142" lon="0.59275">
        <ele>115</ele>
        <time>2019-09-02T09:00:38Z</time>
      </trkpt>
      <trkpt lat="44.75122" lon="0.59296">
        <ele>115</ele>
        <time>2019-09-02T09:00:58Z</time>
      </trkpt>
      <trkpt lat="44.75103" lon="0.59313">
        <ele>115</ele>
        <time>2019-09-02T09:01:16Z</time>
      </trkpt>
      <trkpt lat="44.75088" lon="0.59328">
        <ele>116</ele>
        <time>2019-09-02T09:01:32Z</time>
      </trkpt>
      <trkpt lat="44.75071" lon="0.59346">
        <ele>116</ele>
        <time>2019-09-02T09:01:49Z</time>
      </trkpt>
      <trkpt lat="44.75051" lon="0.59368">
        <ele>116</ele>
        <time>2019-09-02T09:02:08Z</time>
      </trkpt>
      <trkpt lat="44.75032" lon="0.59389">
        <ele>116</ele>
        <time>2019-09-02T09:02:28Z</time>
      </trkpt>
      <trkpt lat="44.75016" lon="0.59409">
        <ele>116</ele>
        <time>2019-09-02T09:02:45Z</time>
      </trkpt>
      <trkpt lat="44.74996" lon="0.59432">
        <ele>116</ele>
        <time>2019-09-02T09:03:06Z</time>
      </trkpt>
      <trkpt lat="44.74976" lon="0.59454">
        <ele>116</ele>
        <time>2019-09-02T09:03:26Z</time>
      </trkpt>
      <trkpt lat="44.74957" lon="0.59475">
        <ele>115</ele>
        <time>2019-09-02T09:03:46Z</time>
      </trkpt>
      <trkpt lat="44.74937" lon="0.59499">
        <ele>115</ele>
        <time>2019-09-02T09:04:07Z</time>
      </trkpt>
      <trkpt lat="44.74922" lon="0.59517">
        <ele>114</ele>
        <time>2019-09-02T09:04:23Z</time>
      </trkpt>
      <trkpt lat="44.74921" lon="0.59519">
        <ele>114</ele>
        <time>2019-09-02T09:04:24Z</time>
      </trkpt>
      <trkpt lat="44.7492" lon="0.5952">
        <ele>114</ele>
        <time>2019-09-02T09:04:25Z</time>
      </trkpt>
      <trkpt lat="44.74919" lon="0.59521">
        <ele>114</ele>
        <time>2019-09-02T09:04:26Z</time>
      </trkpt>
      <trkpt lat="44.74918" lon="0.59522">
        <ele>114</ele>
        <time>2019-09-02T09:04:27Z</time>
      </trkpt>
      <trkpt lat="44.74918" lon="0.59523">
        <ele>114</ele>
        <time>2019-09-02T09:04:28Z</time>
      </trkpt>
      <trkpt lat="44.74917" lon="0.59523">
        <ele>114</ele>
        <time>2019-09-02T09:04:29Z</time>
      </trkpt>
      <trkpt lat="44.74916" lon="0.59524">
        <ele>114</ele>
        <time>2019-09-02T09:04:30Z</time>
      </trkpt>
      <trkpt lat="44.74915" lon="0.59525">
        <ele>114</ele>
        <time>2019-09-02T09:04:31Z</time>
      </trkpt>
      <trkpt lat="44.74914" lon="0.59526">
        <ele>114</ele>
        <time>2019-09-02T09:04:32Z</time>
      </trkpt>
      <trkpt lat="44.74897" lon="0.59545">
        <ele>113</ele>
        <time>2019-09-02T09:04:51Z</time>
      </trkpt>
      <trkpt lat="44.74879" lon="0.59566">
        <ele>113</ele>
        <time>2019-09-02T09:05:11Z</time>
      </trkpt>
      <trkpt lat="44.74862" lon="0.59587">
        <ele>113</ele>
        <time>2019-09-02T09:05:30Z</time>
      </trkpt>
      <trkpt lat="44.74843" lon="0.59608">
        <ele>113</ele>
        <time>2019-09-02T09:05:49Z</time>
      </trkpt>
      <trkpt lat="44.74823" lon="0.59631">
        <ele>112</ele>
        <time>2019-09-02T09:06:11Z</time>
      </trkpt>
      <trkpt lat="44.74806" lon="0.59652">
        <ele>112</ele>
        <time>2019-09-02T09:06:30Z</time>
      </trkpt>
      <trkpt lat="44.74792" lon="0.59669">
        <ele>111</ele>
        <time>2019-09-02T09:06:47Z</time>
      </trkpt>
      <trkpt lat="44.7478" lon="0.59682">
        <ele>111</ele>
        <time>2019-09-02T09:07:03Z</time>
      </trkpt>
      <trkpt lat="44.74767" lon="0.59696">
        <ele>111</ele>
        <time>2019-09-02T09:07:18Z</time>
      </trkpt>
      <trkpt lat="44.74763" lon="0.59701">
        <ele>111</ele>
        <time>2019-09-02T09:07:32Z</time>
      </trkpt>
      <trkpt lat="44.74763" lon="0.597">
        <ele>111</ele>
        <time>2019-09-02T09:07:54Z</time>
      </trkpt>
      <trkpt lat="44.74765" lon="0.59706">
        <ele>111</ele>
        <time>2019-09-02T09:08:28Z</time>
      </trkpt>
      <trkpt lat="44.74759" lon="0.59705">
        <ele>111</ele>
        <time>2019-09-02T09:09:02Z</time>
      </trkpt>
      <trkpt lat="44.74752" lon="0.59713">
        <ele>110</ele>
        <time>2019-09-02T09:09:17Z</time>
      </trkpt>
      <trkpt lat="44.74743" lon="0.59725">
        <ele>110</ele>
        <time>2019-09-02T09:09:33Z</time>
      </trkpt>
      <trkpt lat="44.74728" lon="0.59739">
        <ele>110</ele>
        <time>2019-09-02T09:09:47Z</time>
      </trkpt>
      <trkpt lat="44.7472" lon="0.59751">
        <ele>110</ele>
        <time>2019-09-02T09:09:58Z</time>
      </trkpt>
      <trkpt lat="44.74707" lon="0.59762">
        <ele>110</ele>
        <time>2019-09-02T09:10:11Z</time>
      </trkpt>
      <trkpt lat="44.74695" lon="0.59775">
        <ele>109</ele>
        <time>2019-09-02T09:10:25Z</time>
      </trkpt>
      <trkpt lat="44.74682" lon="0.59788">
        <ele>109</ele>
        <time>2019-09-02T09:10:39Z</time>
      </trkpt>
      <trkpt lat="44.74682" lon="0.59789">
        <ele>109</ele>
        <time>2019-09-02T09:10:40Z</time>
      </trkpt>
      <trkpt lat="44.74668" lon="0.59799">
        <ele>109</ele>
        <time>2019-09-02T09:10:53Z</time>
      </trkpt>
      <trkpt lat="44.74664" lon="0.59802">
        <ele>109</ele>
        <time>2019-09-02T09:10:56Z</time>
      </trkpt>
      <trkpt lat="44.74649" lon="0.59811">
        <ele>109</ele>
        <time>2019-09-02T09:11:10Z</time>
      </trkpt>
      <trkpt lat="44.74635" lon="0.59818">
        <ele>109</ele>
        <time>2019-09-02T09:11:24Z</time>
      </trkpt>
      <trkpt lat="44.74618" lon="0.59829">
        <ele>109</ele>
        <time>2019-09-02T09:11:39Z</time>
      </trkpt>
      <trkpt lat="44.74601" lon="0.59841">
        <ele>109</ele>
        <time>2019-09-02T09:11:55Z</time>
      </trkpt>
      <trkpt lat="44.74585" lon="0.5985">
        <ele>109</ele>
        <time>2019-09-02T09:12:09Z</time>
      </trkpt>
      <trkpt lat="44.74565" lon="0.59861">
        <ele>110</ele>
        <time>2019-09-02T09:12:26Z</time>
      </trkpt>
      <trkpt lat="44.74558" lon="0.59866">
        <ele>111</ele>
        <time>2019-09-02T09:12:33Z</time>
      </trkpt>
      <trkpt lat="44.74557" lon="0.59866">
        <ele>111</ele>
        <time>2019-09-02T09:12:34Z</time>
      </trkpt>
      <trkpt lat="44.74556" lon="0.59867">
        <ele>111</ele>
        <time>2019-09-02T09:12:35Z</time>
      </trkpt>
      <trkpt lat="44.74555" lon="0.59867">
        <ele>111</ele>
        <time>2019-09-02T09:12:36Z</time>
      </trkpt>
      <trkpt lat="44.74554" lon="0.59868">
        <ele>111</ele>
        <time>2019-09-02T09:12:37Z</time>
      </trkpt>
      <trkpt lat="44.74553" lon="0.59869">
        <ele>111</ele>
        <time>2019-09-02T09:12:38Z</time>
      </trkpt>
      <trkpt lat="44.74551" lon="0.59869">
        <ele>111</ele>
        <time>2019-09-02T09:12:39Z</time>
      </trkpt>
      <trkpt lat="44.74533" lon="0.59881">
        <ele>112</ele>
        <time>2019-09-02T09:12:56Z</time>
      </trkpt>
      <trkpt lat="44.74513" lon="0.59894">
        <ele>113</ele>
        <time>2019-09-02T09:13:14Z</time>
      </trkpt>
      <trkpt lat="44.74493" lon="0.59905">
        <ele>114</ele>
        <time>2019-09-02T09:13:32Z</time>
      </trkpt>
      <trkpt lat="44.74472" lon="0.59917">
        <ele>114</ele>
        <time>2019-09-02T09:13:50Z</time>
      </trkpt>
      <trkpt lat="44.74448" lon="0.59928">
        <ele>115</ele>
        <time>2019-09-02T09:14:10Z</time>
      </trkpt>
      <trkpt lat="44.74424" lon="0.59941">
        <ele>115</ele>
        <time>2019-09-02T09:14:30Z</time>
      </trkpt>
      <trkpt lat="44.74402" lon="0.59956">
        <ele>114</ele>
        <time>2019-09-02T09:14:49Z</time>
      </trkpt>
      <trkpt lat="44.74378" lon="0.59973">
        <ele>114</ele>
        <time>2019-09-02T09:15:11Z</time>
      </trkpt>
      <trkpt lat="44.74358" lon="0.59987">
        <ele>114</ele>
        <time>2019-09-02T09:15:29Z</time>
      </trkpt>
      <trkpt lat="44.74337" lon="0.60002">
        <ele>115</ele>
        <time>2019-09-02T09:15:47Z</time>
      </trkpt>
      <trkpt lat="44.74318" lon="0.6002">
        <ele>115</ele>
        <time>2019-09-02T09:16:06Z</time>
      </trkpt>
      <trkpt lat="44.74297" lon="0.60038">
        <ele>115</ele>
        <time>2019-09-02T09:16:25Z</time>
      </trkpt>
      <trkpt lat="44.74277" lon="0.60058">
        <ele>116</ele>
        <time>2019-09-02T09:16:45Z</time>
      </trkpt>
      <trkpt lat="44.74258" lon="0.60077">
        <ele>116</ele>
        <time>2019-09-02T09:17:04Z</time>
      </trkpt>
      <trkpt lat="44.74242" lon="0.60098">
        <ele>116</ele>
        <time>2019-09-02T09:17:22Z</time>
      </trkpt>
      <trkpt lat="44.74219" lon="0.60128">
        <ele>116</ele>
        <time>2019-09-02T09:17:46Z</time>
      </trkpt>
      <trkpt lat="44.74202" lon="0.60154">
        <ele>117</ele>
        <time>2019-09-02T09:18:06Z</time>
      </trkpt>
      <trkpt lat="44.74187" lon="0.60178">
        <ele>118</ele>
        <time>2019-09-02T09:18:24Z</time>
      </trkpt>
      <trkpt lat="44.74172" lon="0.60201">
        <ele>119</ele>
        <time>2019-09-02T09:18:42Z</time>
      </trkpt>
      <trkpt lat="44.74153" lon="0.60222">
        <ele>120</ele>
        <time>2019-09-02T09:19:01Z</time>
      </trkpt>
      <trkpt lat="44.74135" lon="0.60243">
        <ele>122</ele>
        <time>2019-09-02T09:19:21Z</time>
      </trkpt>
      <trkpt lat="44.74117" lon="0.60262">
        <ele>122</ele>
        <time>2019-09-02T09:19:40Z</time>
      </trkpt>
      <trkpt lat="44.74095" lon="0.6028">
        <ele>123</ele>
        <time>2019-09-02T09:20:00Z</time>
      </trkpt>
      <trkpt lat="44.74074" lon="0.60299">
        <ele>124</ele>
        <time>2019-09-02T09:20:20Z</time>
      </trkpt>
      <trkpt lat="44.74055" lon="0.60315">
        <ele>124</ele>
        <time>2019-09-02T09:20:38Z</time>
      </trkpt>
      <trkpt lat="44.74032" lon="0.60335">
        <ele>124</ele>
        <time>2019-09-02T09:20:59Z</time>
      </trkpt>
      <trkpt lat="44.74006" lon="0.60358">
        <ele>123</ele>
        <time>2019-09-02T09:21:23Z</time>
      </trkpt>
      <trkpt lat="44.73985" lon="0.60374">
        <ele>123</ele>
        <time>2019-09-02T09:21:43Z</time>
      </trkpt>
      <trkpt lat="44.73961" lon="0.6039">
        <ele>123</ele>
        <time>2019-09-02T09:22:04Z</time>
      </trkpt>
      <trkpt lat="44.73938" lon="0.60403">
        <ele>123</ele>
        <time>2019-09-02T09:22:24Z</time>
      </trkpt>
      <trkpt lat="44.73917" lon="0.60415">
        <ele>122</ele>
        <time>2019-09-02T09:22:42Z</time>
      </trkpt>
      <trkpt lat="44.73894" lon="0.60428">
        <ele>122</ele>
        <time>2019-09-02T09:23:02Z</time>
      </trkpt>
      <trkpt lat="44.73864" lon="0.6045">
        <ele>121</ele>
        <time>2019-09-02T09:23:28Z</time>
      </trkpt>
      <trkpt lat="44.73838" lon="0.60467">
        <ele>120</ele>
        <time>2019-09-02T09:23:51Z</time>
      </trkpt>
      <trkpt lat="44.73812" lon="0.60483">
        <ele>120</ele>
        <time>2019-09-02T09:24:13Z</time>
      </trkpt>
      <trkpt lat="44.73786" lon="0.605">
        <ele>119</ele>
        <time>2019-09-02T09:24:35Z</time>
      </trkpt>
      <trkpt lat="44.73761" lon="0.60517">
        <ele>118</ele>
        <time>2019-09-02T09:24:58Z</time>
      </trkpt>
      <trkpt lat="44.73744" lon="0.60531">
        <ele>118</ele>
        <time>2019-09-02T09:25:14Z</time>
      </trkpt>
      <trkpt lat="44.73723" lon="0.60543">
        <ele>117</ele>
        <time>2019-09-02T09:25:32Z</time>
      </trkpt>
      <trkpt lat="44.73697" lon="0.60554">
        <ele>117</ele>
        <time>2019-09-02T09:25:53Z</time>
      </trkpt>
      <trkpt lat="44.73672" lon="0.60561">
        <ele>116</ele>
        <time>2019-09-02T09:26:13Z</time>
      </trkpt>
      <trkpt lat="44.73646" lon="0.60568">
        <ele>116</ele>
        <time>2019-09-02T09:26:34Z</time>
      </trkpt>
      <trkpt lat="44.73621" lon="0.60574">
        <ele>115</ele>
        <time>2019-09-02T09:26:53Z</time>
      </trkpt>
      <trkpt lat="44.73595" lon="0.60582">
        <ele>114</ele>
        <time>2019-09-02T09:27:15Z</time>
      </trkpt>
      <trkpt lat="44.7357" lon="0.60592">
        <ele>113</ele>
        <time>2019-09-02T09:27:36Z</time>
      </trkpt>
      <trkpt lat="44.73547" lon="0.60601">
        <ele>112</ele>
        <time>2019-09-02T09:27:54Z</time>
      </trkpt>
      <trkpt lat="44.7352" lon="0.6061">
        <ele>112</ele>
        <time>2019-09-02T09:28:15Z</time>
      </trkpt>
      <trkpt lat="44.73497" lon="0.60618">
        <ele>111</ele>
        <time>2019-09-02T09:28:34Z</time>
      </trkpt>
      <trkpt lat="44.73478" lon="0.60626">
        <ele>111</ele>
        <time>2019-09-02T09:28:49Z</time>
      </trkpt>
      <trkpt lat="44.73458" lon="0.60633">
        <ele>111</ele>
        <time>2019-09-02T09:29:06Z</time>
      </trkpt>
      <trkpt lat="44.73434" lon="0.6064">
        <ele>111</ele>
        <time>2019-09-02T09:29:26Z</time>
      </trkpt>
      <trkpt lat="44.73411" lon="0.60646">
        <ele>111</ele>
        <time>2019-09-02T09:29:45Z</time>
      </trkpt>
      <trkpt lat="44.73388" lon="0.60656">
        <ele>110</ele>
        <time>2019-09-02T09:30:04Z</time>
      </trkpt>
      <trkpt lat="44.73364" lon="0.60672">
        <ele>108</ele>
        <time>2019-09-02T09:30:24Z</time>
      </trkpt>
      <trkpt lat="44.73339" lon="0.60688">
        <ele>107</ele>
        <time>2019-09-02T09:30:45Z</time>
      </trkpt>
      <trkpt lat="44.73315" lon="0.60704">
        <ele>106</ele>
        <time>2019-09-02T09:31:06Z</time>
      </trkpt>
      <trkpt lat="44.73291" lon="0.60719">
        <ele>106</ele>
        <time>2019-09-02T09:31:27Z</time>
      </trkpt>
      <trkpt lat="44.73281" lon="0.60724">
        <ele>106</ele>
        <time>2019-09-02T09:31:44Z</time>
      </trkpt>
      <trkpt lat="44.73283" lon="0.60723">
        <ele>106</ele>
        <time>2019-09-02T09:32:02Z</time>
      </trkpt>
      <trkpt lat="44.73285" lon="0.60723">
        <ele>106</ele>
        <time>2019-09-02T09:32:28Z</time>
      </trkpt>
      <trkpt lat="44.73283" lon="0.60726">
        <ele>106</ele>
        <time>2019-09-02T09:32:49Z</time>
      </trkpt>
      <trkpt lat="44.73284" lon="0.60726">
        <ele>106</ele>
        <time>2019-09-02T09:33:12Z</time>
      </trkpt>
      <trkpt lat="44.73286" lon="0.60733">
        <ele>106</ele>
        <time>2019-09-02T09:33:26Z</time>
      </trkpt>
      <trkpt lat="44.73289" lon="0.60738">
        <ele>106</ele>
        <time>2019-09-02T09:33:31Z</time>
      </trkpt>
      <trkpt lat="44.73302" lon="0.60753">
        <ele>106</ele>
        <time>2019-09-02T09:33:48Z</time>
      </trkpt>
      <trkpt lat="44.73312" lon="0.60771">
        <ele>106</ele>
        <time>2019-09-02T09:34:04Z</time>
      </trkpt>
      <trkpt lat="44.73319" lon="0.60792">
        <ele>106</ele>
        <time>2019-09-02T09:34:20Z</time>
      </trkpt>
      <trkpt lat="44.7332" lon="0.60793">
        <ele>106</ele>
        <time>2019-09-02T09:34:21Z</time>
      </trkpt>
      <trkpt lat="44.7332" lon="0.60794">
        <ele>106</ele>
        <time>2019-09-02T09:34:22Z</time>
      </trkpt>
      <trkpt lat="44.73328" lon="0.60815">
        <ele>106</ele>
        <time>2019-09-02T09:34:37Z</time>
      </trkpt>
      <trkpt lat="44.73338" lon="0.6084">
        <ele>106</ele>
        <time>2019-09-02T09:34:53Z</time>
      </trkpt>
      <trkpt lat="44.73354" lon="0.60854">
        <ele>106</ele>
        <time>2019-09-02T09:35:08Z</time>
      </trkpt>
      <trkpt lat="44.73375" lon="0.60852">
        <ele>108</ele>
        <time>2019-09-02T09:35:25Z</time>
      </trkpt>
      <trkpt lat="44.7339" lon="0.60851">
        <ele>108</ele>
        <time>2019-09-02T09:35:36Z</time>
      </trkpt>
      <trkpt lat="44.73391" lon="0.60852">
        <ele>108</ele>
        <time>2019-09-02T09:35:37Z</time>
      </trkpt>
      <trkpt lat="44.73394" lon="0.60854">
        <ele>108</ele>
        <time>2019-09-02T09:35:40Z</time>
      </trkpt>
      <trkpt lat="44.73395" lon="0.60855">
        <ele>108</ele>
        <time>2019-09-02T09:35:41Z</time>
      </trkpt>
      <trkpt lat="44.73408" lon="0.60878">
        <ele>108</ele>
        <time>2019-09-02T09:35:58Z</time>
      </trkpt>
      <trkpt lat="44.73411" lon="0.60881">
        <ele>108</ele>
        <time>2019-09-02T09:36:12Z</time>
      </trkpt>
      <trkpt lat="44.73413" lon="0.60883">
        <ele>108</ele>
        <time>2019-09-02T09:36:27Z</time>
      </trkpt>
      <trkpt lat="44.7342" lon="0.60898">
        <ele>107</ele>
        <time>2019-09-02T09:36:42Z</time>
      </trkpt>
      <trkpt lat="44.73423" lon="0.60902">
        <ele>107</ele>
        <time>2019-09-02T09:36:54Z</time>
      </trkpt>
      <trkpt lat="44.7343" lon="0.60921">
        <ele>107</ele>
        <time>2019-09-02T09:37:08Z</time>
      </trkpt>
      <trkpt lat="44.7343" lon="0.60922">
        <ele>107</ele>
        <time>2019-09-02T09:37:09Z</time>
      </trkpt>
      <trkpt lat="44.73431" lon="0.60924">
        <ele>107</ele>
        <time>2019-09-02T09:37:10Z</time>
      </trkpt>
      <trkpt lat="44.73432" lon="0.60926">
        <ele>107</ele>
        <time>2019-09-02T09:37:11Z</time>
      </trkpt>
      <trkpt lat="44.73432" lon="0.60927">
        <ele>107</ele>
        <time>2019-09-02T09:37:12Z</time>
      </trkpt>
      <trkpt lat="44.73446" lon="0.6096">
        <ele>107</ele>
        <time>2019-09-02T09:37:33Z</time>
      </trkpt>
      <trkpt lat="44.73458" lon="0.60987">
        <ele>108</ele>
        <time>2019-09-02T09:37:51Z</time>
      </trkpt>
      <trkpt lat="44.73473" lon="0.61014">
        <ele>108</ele>
        <time>2019-09-02T09:38:09Z</time>
      </trkpt>
      <trkpt lat="44.73487" lon="0.61043">
        <ele>108</ele>
        <time>2019-09-02T09:38:29Z</time>
      </trkpt>
      <trkpt lat="44.73501" lon="0.61068">
        <ele>108</ele>
        <time>2019-09-02T09:38:46Z</time>
      </trkpt>
      <trkpt lat="44.73516" lon="0.61098">
        <ele>108</ele>
        <time>2019-09-02T09:39:06Z</time>
      </trkpt>
      <trkpt lat="44.73518" lon="0.61114">
        <ele>108</ele>
        <time>2019-09-02T09:39:23Z</time>
      </trkpt>
      <trkpt lat="44.73517" lon="0.61114">
        <ele>108</ele>
        <time>2019-09-02T09:39:38Z</time>
      </trkpt>
      <trkpt lat="44.73517" lon="0.61114">
        <ele>108</ele>
        <time>2019-09-02T09:39:59Z</time>
      </trkpt>
      <trkpt lat="44.7351" lon="0.61121">
        <ele>108</ele>
        <time>2019-09-02T09:40:13Z</time>
      </trkpt>
      <trkpt lat="44.73507" lon="0.61123">
        <ele>108</ele>
        <time>2019-09-02T09:40:16Z</time>
      </trkpt>
      <trkpt lat="44.73491" lon="0.61136">
        <ele>108</ele>
        <time>2019-09-02T09:40:35Z</time>
      </trkpt>
      <trkpt lat="44.73475" lon="0.61148">
        <ele>108</ele>
        <time>2019-09-02T09:40:51Z</time>
      </trkpt>
      <trkpt lat="44.73459" lon="0.61154">
        <ele>107</ele>
        <time>2019-09-02T09:41:08Z</time>
      </trkpt>
      <trkpt lat="44.73444" lon="0.61144">
        <ele>107</ele>
        <time>2019-09-02T09:41:23Z</time>
      </trkpt>
      <trkpt lat="44.73443" lon="0.61143">
        <ele>107</ele>
        <time>2019-09-02T09:41:24Z</time>
      </trkpt>
      <trkpt lat="44.7343" lon="0.61138">
        <ele>107</ele>
        <time>2019-09-02T09:41:37Z</time>
      </trkpt>
      <trkpt lat="44.73415" lon="0.61133">
        <ele>107</ele>
        <time>2019-09-02T09:41:52Z</time>
      </trkpt>
      <trkpt lat="44.73408" lon="0.61138">
        <ele>107</ele>
        <time>2019-09-02T09:42:02Z</time>
      </trkpt>
      <trkpt lat="44.73393" lon="0.61151">
        <ele>107</ele>
        <time>2019-09-02T09:42:19Z</time>
      </trkpt>
      <trkpt lat="44.73397" lon="0.6117">
        <ele>107</ele>
        <time>2019-09-02T09:42:35Z</time>
      </trkpt>
      <trkpt lat="44.73399" lon="0.61177">
        <ele>107</ele>
        <time>2019-09-02T09:42:40Z</time>
      </trkpt>
      <trkpt lat="44.73401" lon="0.61198">
        <ele>107</ele>
        <time>2019-09-02T09:42:57Z</time>
      </trkpt>
      <trkpt lat="44.73402" lon="0.61218">
        <ele>107</ele>
        <time>2019-09-02T09:43:12Z</time>
      </trkpt>
      <trkpt lat="44.73403" lon="0.61219">
        <ele>107</ele>
        <time>2019-09-02T09:43:13Z</time>
      </trkpt>
      <trkpt lat="44.73411" lon="0.61237">
        <ele>108</ele>
        <time>2019-09-02T09:43:28Z</time>
      </trkpt>
      <trkpt lat="44.73412" lon="0.61253">
        <ele>108</ele>
        <time>2019-09-02T09:43:42Z</time>
      </trkpt>
      <trkpt lat="44.73411" lon="0.61271">
        <ele>108</ele>
        <time>2019-09-02T09:43:56Z</time>
      </trkpt>
      <trkpt lat="44.73405" lon="0.61287">
        <ele>108</ele>
        <time>2019-09-02T09:44:08Z</time>
      </trkpt>
      <trkpt lat="44.73404" lon="0.61292">
        <ele>108</ele>
        <time>2019-09-02T09:44:11Z</time>
      </trkpt>
      <trkpt lat="44.73397" lon="0.61309">
        <ele>108</ele>
        <time>2019-09-02T09:44:24Z</time>
      </trkpt>
      <trkpt lat="44.73396" lon="0.61333">
        <ele>108</ele>
        <time>2019-09-02T09:44:39Z</time>
      </trkpt>
      <trkpt lat="44.73395" lon="0.61351">
        <ele>108</ele>
        <time>2019-09-02T09:44:52Z</time>
      </trkpt>
      <trkpt lat="44.73394" lon="0.61369">
        <ele>108</ele>
        <time>2019-09-02T09:45:05Z</time>
      </trkpt>
      <trkpt lat="44.73394" lon="0.61393">
        <ele>108</ele>
        <time>2019-09-02T09:45:20Z</time>
      </trkpt>
      <trkpt lat="44.73391" lon="0.61415">
        <ele>108</ele>
        <time>2019-09-02T09:45:34Z</time>
      </trkpt>
      <trkpt lat="44.73388" lon="0.61433">
        <ele>108</ele>
        <time>2019-09-02T09:45:45Z</time>
      </trkpt>
      <trkpt lat="44.7338" lon="0.61435">
        <ele>108</ele>
        <time>2019-09-02T09:45:51Z</time>
      </trkpt>
      <trkpt lat="44.7337" lon="0.61436">
        <ele>108</ele>
        <time>2019-09-02T09:45:59Z</time>
      </trkpt>
      <trkpt lat="44.73366" lon="0.6143">
        <ele>108</ele>
        <time>2019-09-02T09:46:04Z</time>
      </trkpt>
      <trkpt lat="44.73361" lon="0.61405">
        <ele>108</ele>
        <time>2019-09-02T09:46:21Z</time>
      </trkpt>
      <trkpt lat="44.73358" lon="0.61391">
        <ele>108</ele>
        <time>2019-09-02T09:46:32Z</time>
      </trkpt>
      <trkpt lat="44.73354" lon="0.61374">
        <ele>108</ele>
        <time>2019-09-02T09:46:47Z</time>
      </trkpt>
      <trkpt lat="44.73347" lon="0.61347">
        <ele>108</ele>
        <time>2019-09-02T09:47:06Z</time>
      </trkpt>
      <trkpt lat="44.73342" lon="0.61322">
        <ele>108</ele>
        <time>2019-09-02T09:47:22Z</time>
      </trkpt>
      <trkpt lat="44.73336" lon="0.61299">
        <ele>107</ele>
        <time>2019-09-02T09:47:37Z</time>
      </trkpt>
      <trkpt lat="44.73328" lon="0.61272">
        <ele>107</ele>
        <time>2019-09-02T09:47:54Z</time>
      </trkpt>
      <trkpt lat="44.73322" lon="0.61246">
        <ele>107</ele>
        <time>2019-09-02T09:48:10Z</time>
      </trkpt>
      <trkpt lat="44.73317" lon="0.61221">
        <ele>107</ele>
        <time>2019-09-02T09:48:26Z</time>
      </trkpt>
      <trkpt lat="44.7331" lon="0.61193">
        <ele>107</ele>
        <time>2019-09-02T09:48:43Z</time>
      </trkpt>
      <trkpt lat="44.73298" lon="0.6117">
        <ele>107</ele>
        <time>2019-09-02T09:49:00Z</time>
      </trkpt>
      <trkpt lat="44.73285" lon="0.61139">
        <ele>107</ele>
        <time>2019-09-02T09:49:20Z</time>
      </trkpt>
      <trkpt lat="44.73276" lon="0.61108">
        <ele>107</ele>
        <time>2019-09-02T09:49:40Z</time>
      </trkpt>
      <trkpt lat="44.7328" lon="0.61077">
        <ele>107</ele>
        <time>2019-09-02T09:49:59Z</time>
      </trkpt>
      <trkpt lat="44.73284" lon="0.61049">
        <ele>107</ele>
        <time>2019-09-02T09:50:17Z</time>
      </trkpt>
      <trkpt lat="44.73283" lon="0.61022">
        <ele>106</ele>
        <time>2019-09-02T09:50:34Z</time>
      </trkpt>
      <trkpt lat="44.73269" lon="0.61008">
        <ele>106</ele>
        <time>2019-09-02T09:50:49Z</time>
      </trkpt>
      <trkpt lat="44.73262" lon="0.60985">
        <ele>106</ele>
        <time>2019-09-02T09:51:05Z</time>
      </trkpt>
      <trkpt lat="44.73252" lon="0.6096">
        <ele>106</ele>
        <time>2019-09-02T09:51:23Z</time>
      </trkpt>
      <trkpt lat="44.73249" lon="0.60955">
        <ele>106</ele>
        <time>2019-09-02T09:51:27Z</time>
      </trkpt>
      <trkpt lat="44.7323" lon="0.60943">
        <ele>106</ele>
        <time>2019-09-02T09:51:44Z</time>
      </trkpt>
      <trkpt lat="44.73216" lon="0.60917">
        <ele>106</ele>
        <time>2019-09-02T09:52:03Z</time>
      </trkpt>
      <trkpt lat="44.73203" lon="0.60892">
        <ele>106</ele>
        <time>2019-09-02T09:52:21Z</time>
      </trkpt>
      <trkpt lat="44.73192" lon="0.60866">
        <ele>106</ele>
        <time>2019-09-02T09:52:39Z</time>
      </trkpt>
      <trkpt lat="44.73181" lon="0.60845">
        <ele>106</ele>
        <time>2019-09-02T09:52:54Z</time>
      </trkpt>
      <trkpt lat="44.73167" lon="0.60828">
        <ele>106</ele>
        <time>2019-09-02T09:53:09Z</time>
      </trkpt>
      <trkpt lat="44.73154" lon="0.6082">
        <ele>105</ele>
        <time>2019-09-02T09:53:24Z</time>
      </trkpt>
      <trkpt lat="44.73138" lon="0.60815">
        <ele>105</ele>
        <time>2019-09-02T09:53:40Z</time>
      </trkpt>
      <trkpt lat="44.73138" lon="0.60813">
        <ele>105</ele>
        <time>2019-09-02T09:53:42Z</time>
      </trkpt>
      <trkpt lat="44.73141" lon="0.60794">
        <ele>105</ele>
        <time>2019-09-02T09:53:54Z</time>
      </trkpt>
      <trkpt lat="44.73139" lon="0.60786">
        <ele>105</ele>
        <time>2019-09-02T09:54:09Z</time>
      </trkpt>
      <trkpt lat="44.73139" lon="0.60785">
        <ele>105</ele>
        <time>2019-09-02T09:54:29Z</time>
      </trkpt>
      <trkpt lat="44.73137" lon="0.60775">
        <ele>105</ele>
        <time>2019-09-02T09:54:40Z</time>
      </trkpt>
      <trkpt lat="44.73138" lon="0.60772">
        <ele>105</ele>
        <time>2019-09-02T09:54:59Z</time>
      </trkpt>
      <trkpt lat="44.73139" lon="0.6077">
        <ele>105</ele>
        <time>2019-09-02T09:55:21Z</time>
      </trkpt>
      <trkpt lat="44.73139" lon="0.60772">
        <ele>105</ele>
        <time>2019-09-02T09:55:33Z</time>
      </trkpt>
      <trkpt lat="44.73139" lon="0.60772">
        <ele>105</ele>
        <time>2019-09-02T09:55:41Z</time>
      </trkpt>
    </trkseg>
  </trk>
</gpx>